<?xml version="1.0" encoding="UTF-8" standalone="no" ?>
<gpx xmlns="http://www.topografix.com/GPX/1/1" xmlns:xsi="http://www.w3.org/2001/XMLSchema-instance" xsi:schemaLocation="http://www.topografix.com/GPX/1/1 http://www.topografix.com/GPX/1/1/gpx.xsd" version="1.1" creator="VisuGPX - https://www.visugpx.com">
  <metadata>
    <name>ESPAGNE - PEDESTRE - Mallos de Riglos (Randonnée Pédestre)</name>
    <desc><![CDATA[Fait avec Didier, petite boucle]]></desc>
  </metadata>
  <wpt lat="42.3368" lon="-0.7493">
    <ele>506</ele>
    <name><![CDATA[Départ/Arrivée]]></name>
  </wpt>
  <wpt lat="42.35062" lon="-0.72795">
    <ele>879.96582</ele>
    <name><![CDATA[Los Riglos]]></name>
  </wpt>
  <wpt lat="42.34951" lon="-0.72027">
    <ele>920.100586</ele>
    <name><![CDATA[Mallo Colorado]]></name>
  </wpt>
  <wpt lat="42.35367" lon="-0.73026">
    <ele>908.6</ele>
    <name><![CDATA[Mallo Fire]]></name>
  </wpt>
  <wpt lat="42.35484" lon="-0.72298">
    <ele>1038.101318</ele>
    <name><![CDATA[Mirador de Ben]]></name>
    <desc><![CDATA[Mirador de Benduso 1038m<br>19-M]]></desc>
  </wpt>
  <wpt lat="42.34584" lon="-0.72586">
    <ele>632.908936</ele>
    <name><![CDATA[Parking]]></name>
  </wpt>
  <wpt lat="42.34843" lon="-0.72709">
    <ele>643.963867</ele>
    <name><![CDATA[Riglos]]></name>
  </wpt>
  <trk>
    <name><![CDATA[ACTIVE LOG]]></name>
    <trkseg>
      <trkpt lat="42.33681" lon="-0.74927">
        <ele>512.039429</ele>
        <time>2013-06-02T07:21:44Z</time>
      </trkpt>
      <trkpt lat="42.33681" lon="-0.74927">
        <ele>512.039429</ele>
        <time>2013-06-02T07:21:45Z</time>
      </trkpt>
      <trkpt lat="42.3368" lon="-0.74927">
        <ele>513.481445</ele>
        <time>2013-06-02T07:22:14Z</time>
      </trkpt>
      <trkpt lat="42.3368" lon="-0.74926">
        <ele>512.52002</ele>
        <time>2013-06-02T07:22:30Z</time>
      </trkpt>
      <trkpt lat="42.33679" lon="-0.74927">
        <ele>513.000732</ele>
        <time>2013-06-02T07:22:55Z</time>
      </trkpt>
      <trkpt lat="42.33679" lon="-0.74927">
        <ele>513.481445</ele>
        <time>2013-06-02T07:23:19Z</time>
      </trkpt>
      <trkpt lat="42.33674" lon="-0.74931">
        <ele>513.962036</ele>
        <time>2013-06-02T07:24:04Z</time>
      </trkpt>
      <trkpt lat="42.33673" lon="-0.74931">
        <ele>514.92334</ele>
        <time>2013-06-02T07:24:05Z</time>
      </trkpt>
      <trkpt lat="42.33648" lon="-0.74948">
        <ele>514.442627</ele>
        <time>2013-06-02T07:24:30Z</time>
      </trkpt>
      <trkpt lat="42.33638" lon="-0.7496">
        <ele>513.962036</ele>
        <time>2013-06-02T07:24:43Z</time>
      </trkpt>
      <trkpt lat="42.33622" lon="-0.7495">
        <ele>513.481445</ele>
        <time>2013-06-02T07:24:59Z</time>
      </trkpt>
      <trkpt lat="42.3361" lon="-0.74935">
        <ele>512.52002</ele>
        <time>2013-06-02T07:25:13Z</time>
      </trkpt>
      <trkpt lat="42.33606" lon="-0.7493">
        <ele>512.039429</ele>
        <time>2013-06-02T07:25:17Z</time>
      </trkpt>
      <trkpt lat="42.33588" lon="-0.749">
        <ele>511.078003</ele>
        <time>2013-06-02T07:25:43Z</time>
      </trkpt>
      <trkpt lat="42.3359" lon="-0.74894">
        <ele>513.481445</ele>
        <time>2013-06-02T07:25:47Z</time>
      </trkpt>
      <trkpt lat="42.33601" lon="-0.74875">
        <ele>513.481445</ele>
        <time>2013-06-02T07:26:01Z</time>
      </trkpt>
      <trkpt lat="42.33607" lon="-0.74864">
        <ele>509.155396</ele>
        <time>2013-06-02T07:26:09Z</time>
      </trkpt>
      <trkpt lat="42.33604" lon="-0.74835">
        <ele>511.558716</ele>
        <time>2013-06-02T07:26:27Z</time>
      </trkpt>
      <trkpt lat="42.33597" lon="-0.74794">
        <ele>510.116699</ele>
        <time>2013-06-02T07:26:52Z</time>
      </trkpt>
      <trkpt lat="42.33595" lon="-0.74751">
        <ele>507.713501</ele>
        <time>2013-06-02T07:27:18Z</time>
      </trkpt>
      <trkpt lat="42.33578" lon="-0.7473">
        <ele>505.310181</ele>
        <time>2013-06-02T07:27:38Z</time>
      </trkpt>
      <trkpt lat="42.33571" lon="-0.74731">
        <ele>504.829468</ele>
        <time>2013-06-02T07:27:44Z</time>
      </trkpt>
      <trkpt lat="42.33545" lon="-0.74732">
        <ele>503.868164</ele>
        <time>2013-06-02T07:28:06Z</time>
      </trkpt>
      <trkpt lat="42.33542" lon="-0.74732">
        <ele>503.387451</ele>
        <time>2013-06-02T07:28:08Z</time>
      </trkpt>
      <trkpt lat="42.3354" lon="-0.74732">
        <ele>504.829468</ele>
        <time>2013-06-02T07:28:10Z</time>
      </trkpt>
      <trkpt lat="42.33512" lon="-0.74731">
        <ele>503.868164</ele>
        <time>2013-06-02T07:28:33Z</time>
      </trkpt>
      <trkpt lat="42.33485" lon="-0.74725">
        <ele>503.387451</ele>
        <time>2013-06-02T07:28:55Z</time>
      </trkpt>
      <trkpt lat="42.33474" lon="-0.74695">
        <ele>503.387451</ele>
        <time>2013-06-02T07:29:15Z</time>
      </trkpt>
      <trkpt lat="42.33468" lon="-0.74654">
        <ele>501.945557</ele>
        <time>2013-06-02T07:29:39Z</time>
      </trkpt>
      <trkpt lat="42.33466" lon="-0.74634">
        <ele>500.984131</ele>
        <time>2013-06-02T07:29:50Z</time>
      </trkpt>
      <trkpt lat="42.33459" lon="-0.74598">
        <ele>502.426147</ele>
        <time>2013-06-02T07:30:12Z</time>
      </trkpt>
      <trkpt lat="42.33448" lon="-0.74563">
        <ele>501.945557</ele>
        <time>2013-06-02T07:30:34Z</time>
      </trkpt>
      <trkpt lat="42.33427" lon="-0.74531">
        <ele>501.464844</ele>
        <time>2013-06-02T07:30:58Z</time>
      </trkpt>
      <trkpt lat="42.33414" lon="-0.74503">
        <ele>501.945557</ele>
        <time>2013-06-02T07:31:18Z</time>
      </trkpt>
      <trkpt lat="42.33408" lon="-0.74491">
        <ele>501.945557</ele>
        <time>2013-06-02T07:31:33Z</time>
      </trkpt>
      <trkpt lat="42.334" lon="-0.74472">
        <ele>501.945557</ele>
        <time>2013-06-02T07:32:04Z</time>
      </trkpt>
      <trkpt lat="42.33391" lon="-0.74447">
        <ele>502.426147</ele>
        <time>2013-06-02T07:32:23Z</time>
      </trkpt>
      <trkpt lat="42.33385" lon="-0.74427">
        <ele>501.945557</ele>
        <time>2013-06-02T07:32:44Z</time>
      </trkpt>
      <trkpt lat="42.33376" lon="-0.74406">
        <ele>499.542236</ele>
        <time>2013-06-02T07:32:56Z</time>
      </trkpt>
      <trkpt lat="42.33352" lon="-0.74373">
        <ele>498.100342</ele>
        <time>2013-06-02T07:33:23Z</time>
      </trkpt>
      <trkpt lat="42.33351" lon="-0.74373">
        <ele>498.580933</ele>
        <time>2013-06-02T07:33:31Z</time>
      </trkpt>
      <trkpt lat="42.33345" lon="-0.74366">
        <ele>497.619629</ele>
        <time>2013-06-02T07:33:49Z</time>
      </trkpt>
      <trkpt lat="42.33331" lon="-0.74344">
        <ele>494.255005</ele>
        <time>2013-06-02T07:34:07Z</time>
      </trkpt>
      <trkpt lat="42.33322" lon="-0.74325">
        <ele>493.774292</ele>
        <time>2013-06-02T07:34:23Z</time>
      </trkpt>
      <trkpt lat="42.33313" lon="-0.74307">
        <ele>491.370972</ele>
        <time>2013-06-02T07:34:37Z</time>
      </trkpt>
      <trkpt lat="42.33287" lon="-0.74292">
        <ele>488.967773</ele>
        <time>2013-06-02T07:34:59Z</time>
      </trkpt>
      <trkpt lat="42.33273" lon="-0.74296">
        <ele>485.603027</ele>
        <time>2013-06-02T07:35:09Z</time>
      </trkpt>
      <trkpt lat="42.33255" lon="-0.74291">
        <ele>483.199829</ele>
        <time>2013-06-02T07:35:26Z</time>
      </trkpt>
      <trkpt lat="42.33257" lon="-0.7427">
        <ele>480.315918</ele>
        <time>2013-06-02T07:35:39Z</time>
      </trkpt>
      <trkpt lat="42.33266" lon="-0.74239">
        <ele>476.951294</ele>
        <time>2013-06-02T07:36:01Z</time>
      </trkpt>
      <trkpt lat="42.3328" lon="-0.74206">
        <ele>473.58667</ele>
        <time>2013-06-02T07:36:26Z</time>
      </trkpt>
      <trkpt lat="42.33294" lon="-0.74183">
        <ele>470.702637</ele>
        <time>2013-06-02T07:36:46Z</time>
      </trkpt>
      <trkpt lat="42.33296" lon="-0.74179">
        <ele>469.741333</ele>
        <time>2013-06-02T07:37:01Z</time>
      </trkpt>
      <trkpt lat="42.33306" lon="-0.74166">
        <ele>470.221924</ele>
        <time>2013-06-02T07:37:14Z</time>
      </trkpt>
      <trkpt lat="42.33307" lon="-0.74165">
        <ele>470.221924</ele>
        <time>2013-06-02T07:37:15Z</time>
      </trkpt>
      <trkpt lat="42.33333" lon="-0.74142">
        <ele>467.818726</ele>
        <time>2013-06-02T07:37:41Z</time>
      </trkpt>
      <trkpt lat="42.33348" lon="-0.74132">
        <ele>467.818726</ele>
        <time>2013-06-02T07:38:04Z</time>
      </trkpt>
      <trkpt lat="42.33348" lon="-0.74132">
        <ele>466.857422</ele>
        <time>2013-06-02T07:38:26Z</time>
      </trkpt>
      <trkpt lat="42.33348" lon="-0.74131">
        <ele>467.818726</ele>
        <time>2013-06-02T07:38:28Z</time>
      </trkpt>
      <trkpt lat="42.33373" lon="-0.74119">
        <ele>465.896118</ele>
        <time>2013-06-02T07:38:49Z</time>
      </trkpt>
      <trkpt lat="42.33401" lon="-0.74107">
        <ele>464.934814</ele>
        <time>2013-06-02T07:39:12Z</time>
      </trkpt>
      <trkpt lat="42.3341" lon="-0.74102">
        <ele>464.934814</ele>
        <time>2013-06-02T07:39:30Z</time>
      </trkpt>
      <trkpt lat="42.33417" lon="-0.74102">
        <ele>463.973389</ele>
        <time>2013-06-02T07:39:43Z</time>
      </trkpt>
      <trkpt lat="42.33444" lon="-0.74097">
        <ele>462.531372</ele>
        <time>2013-06-02T07:40:06Z</time>
      </trkpt>
      <trkpt lat="42.33445" lon="-0.74097">
        <ele>463.492798</ele>
        <time>2013-06-02T07:40:28Z</time>
      </trkpt>
      <trkpt lat="42.33456" lon="-0.741">
        <ele>464.454102</ele>
        <time>2013-06-02T07:40:39Z</time>
      </trkpt>
      <trkpt lat="42.33464" lon="-0.74104">
        <ele>466.376709</ele>
        <time>2013-06-02T07:41:01Z</time>
      </trkpt>
      <trkpt lat="42.33465" lon="-0.74103">
        <ele>465.896118</ele>
        <time>2013-06-02T07:41:03Z</time>
      </trkpt>
      <trkpt lat="42.33467" lon="-0.74061">
        <ele>464.934814</ele>
        <time>2013-06-02T07:41:27Z</time>
      </trkpt>
      <trkpt lat="42.33467" lon="-0.74043">
        <ele>463.973389</ele>
        <time>2013-06-02T07:41:38Z</time>
      </trkpt>
      <trkpt lat="42.33467" lon="-0.74037">
        <ele>466.376709</ele>
        <time>2013-06-02T07:41:42Z</time>
      </trkpt>
      <trkpt lat="42.33466" lon="-0.74021">
        <ele>464.934814</ele>
        <time>2013-06-02T07:41:55Z</time>
      </trkpt>
      <trkpt lat="42.33466" lon="-0.74005">
        <ele>465.415527</ele>
        <time>2013-06-02T07:42:09Z</time>
      </trkpt>
      <trkpt lat="42.33468" lon="-0.73972">
        <ele>465.896118</ele>
        <time>2013-06-02T07:42:31Z</time>
      </trkpt>
      <trkpt lat="42.33468" lon="-0.73966">
        <ele>465.415527</ele>
        <time>2013-06-02T07:42:44Z</time>
      </trkpt>
      <trkpt lat="42.33468" lon="-0.73958">
        <ele>468.299316</ele>
        <time>2013-06-02T07:42:58Z</time>
      </trkpt>
      <trkpt lat="42.33477" lon="-0.7398">
        <ele>471.66394</ele>
        <time>2013-06-02T07:43:18Z</time>
      </trkpt>
      <trkpt lat="42.33483" lon="-0.7398">
        <ele>473.58667</ele>
        <time>2013-06-02T07:43:24Z</time>
      </trkpt>
      <trkpt lat="42.33494" lon="-0.73979">
        <ele>476.470581</ele>
        <time>2013-06-02T07:43:40Z</time>
      </trkpt>
      <trkpt lat="42.33491" lon="-0.73969">
        <ele>479.835083</ele>
        <time>2013-06-02T07:43:53Z</time>
      </trkpt>
      <trkpt lat="42.33486" lon="-0.73958">
        <ele>481.277222</ele>
        <time>2013-06-02T07:44:10Z</time>
      </trkpt>
      <trkpt lat="42.33496" lon="-0.7396">
        <ele>484.161133</ele>
        <time>2013-06-02T07:44:25Z</time>
      </trkpt>
      <trkpt lat="42.33493" lon="-0.73952">
        <ele>486.08374</ele>
        <time>2013-06-02T07:44:37Z</time>
      </trkpt>
      <trkpt lat="42.33491" lon="-0.73943">
        <ele>488.967773</ele>
        <time>2013-06-02T07:44:51Z</time>
      </trkpt>
      <trkpt lat="42.33495" lon="-0.73945">
        <ele>490.40979</ele>
        <time>2013-06-02T07:44:59Z</time>
      </trkpt>
      <trkpt lat="42.33506" lon="-0.73951">
        <ele>493.774292</ele>
        <time>2013-06-02T07:45:14Z</time>
      </trkpt>
      <trkpt lat="42.33502" lon="-0.73941">
        <ele>495.216187</ele>
        <time>2013-06-02T07:45:26Z</time>
      </trkpt>
      <trkpt lat="42.33499" lon="-0.73936">
        <ele>495.216187</ele>
        <time>2013-06-02T07:45:35Z</time>
      </trkpt>
      <trkpt lat="42.33503" lon="-0.73937">
        <ele>496.658325</ele>
        <time>2013-06-02T07:45:40Z</time>
      </trkpt>
      <trkpt lat="42.33511" lon="-0.7394">
        <ele>500.022949</ele>
        <time>2013-06-02T07:45:52Z</time>
      </trkpt>
      <trkpt lat="42.33514" lon="-0.73941">
        <ele>500.984131</ele>
        <time>2013-06-02T07:45:56Z</time>
      </trkpt>
      <trkpt lat="42.33523" lon="-0.73945">
        <ele>503.868164</ele>
        <time>2013-06-02T07:46:10Z</time>
      </trkpt>
      <trkpt lat="42.33533" lon="-0.73946">
        <ele>504.829468</ele>
        <time>2013-06-02T07:46:27Z</time>
      </trkpt>
      <trkpt lat="42.33556" lon="-0.73949">
        <ele>504.829468</ele>
        <time>2013-06-02T07:46:49Z</time>
      </trkpt>
      <trkpt lat="42.3358" lon="-0.73957">
        <ele>504.829468</ele>
        <time>2013-06-02T07:47:11Z</time>
      </trkpt>
      <trkpt lat="42.33605" lon="-0.73957">
        <ele>504.348877</ele>
        <time>2013-06-02T07:47:33Z</time>
      </trkpt>
      <trkpt lat="42.33626" lon="-0.73957">
        <ele>504.348877</ele>
        <time>2013-06-02T07:47:55Z</time>
      </trkpt>
      <trkpt lat="42.33635" lon="-0.73957">
        <ele>503.868164</ele>
        <time>2013-06-02T07:48:10Z</time>
      </trkpt>
      <trkpt lat="42.3366" lon="-0.73963">
        <ele>501.464844</ele>
        <time>2013-06-02T07:48:32Z</time>
      </trkpt>
      <trkpt lat="42.33664" lon="-0.73967">
        <ele>499.542236</ele>
        <time>2013-06-02T07:48:38Z</time>
      </trkpt>
      <trkpt lat="42.33678" lon="-0.73974">
        <ele>497.619629</ele>
        <time>2013-06-02T07:48:57Z</time>
      </trkpt>
      <trkpt lat="42.33684" lon="-0.73972">
        <ele>495.216187</ele>
        <time>2013-06-02T07:49:03Z</time>
      </trkpt>
      <trkpt lat="42.3369" lon="-0.73962">
        <ele>493.293579</ele>
        <time>2013-06-02T07:49:15Z</time>
      </trkpt>
      <trkpt lat="42.33701" lon="-0.73962">
        <ele>493.774292</ele>
        <time>2013-06-02T07:49:32Z</time>
      </trkpt>
      <trkpt lat="42.33715" lon="-0.73973">
        <ele>497.138916</ele>
        <time>2013-06-02T07:49:50Z</time>
      </trkpt>
      <trkpt lat="42.33716" lon="-0.73973">
        <ele>497.619629</ele>
        <time>2013-06-02T07:49:51Z</time>
      </trkpt>
      <trkpt lat="42.33724" lon="-0.73972">
        <ele>498.100342</ele>
        <time>2013-06-02T07:50:09Z</time>
      </trkpt>
      <trkpt lat="42.33732" lon="-0.7397">
        <ele>499.542236</ele>
        <time>2013-06-02T07:50:20Z</time>
      </trkpt>
      <trkpt lat="42.3374" lon="-0.73967">
        <ele>501.464844</ele>
        <time>2013-06-02T07:50:35Z</time>
      </trkpt>
      <trkpt lat="42.33753" lon="-0.73966">
        <ele>504.829468</ele>
        <time>2013-06-02T07:50:52Z</time>
      </trkpt>
      <trkpt lat="42.33757" lon="-0.73972">
        <ele>504.829468</ele>
        <time>2013-06-02T07:50:58Z</time>
      </trkpt>
      <trkpt lat="42.3376" lon="-0.73982">
        <ele>505.310181</ele>
        <time>2013-06-02T07:51:06Z</time>
      </trkpt>
      <trkpt lat="42.33785" lon="-0.74002">
        <ele>506.271484</ele>
        <time>2013-06-02T07:51:30Z</time>
      </trkpt>
      <trkpt lat="42.33818" lon="-0.73999">
        <ele>506.271484</ele>
        <time>2013-06-02T07:51:56Z</time>
      </trkpt>
      <trkpt lat="42.33847" lon="-0.73983">
        <ele>505.790894</ele>
        <time>2013-06-02T07:52:21Z</time>
      </trkpt>
      <trkpt lat="42.33865" lon="-0.73959">
        <ele>506.752075</ele>
        <time>2013-06-02T07:52:42Z</time>
      </trkpt>
      <trkpt lat="42.33872" lon="-0.73943">
        <ele>508.674683</ele>
        <time>2013-06-02T07:52:59Z</time>
      </trkpt>
      <trkpt lat="42.33871" lon="-0.73932">
        <ele>509.155396</ele>
        <time>2013-06-02T07:53:11Z</time>
      </trkpt>
      <trkpt lat="42.33869" lon="-0.7392">
        <ele>507.713501</ele>
        <time>2013-06-02T07:53:20Z</time>
      </trkpt>
      <trkpt lat="42.33869" lon="-0.73917">
        <ele>509.155396</ele>
        <time>2013-06-02T07:53:22Z</time>
      </trkpt>
      <trkpt lat="42.33869" lon="-0.73899">
        <ele>511.558716</ele>
        <time>2013-06-02T07:53:34Z</time>
      </trkpt>
      <trkpt lat="42.3387" lon="-0.73896">
        <ele>507.232788</ele>
        <time>2013-06-02T07:53:38Z</time>
      </trkpt>
      <trkpt lat="42.3387" lon="-0.73894">
        <ele>508.194092</ele>
        <time>2013-06-02T07:53:39Z</time>
      </trkpt>
      <trkpt lat="42.33872" lon="-0.73879">
        <ele>511.558716</ele>
        <time>2013-06-02T07:53:48Z</time>
      </trkpt>
      <trkpt lat="42.33872" lon="-0.73868">
        <ele>508.194092</ele>
        <time>2013-06-02T07:53:54Z</time>
      </trkpt>
      <trkpt lat="42.33874" lon="-0.73862">
        <ele>511.078003</ele>
        <time>2013-06-02T07:53:58Z</time>
      </trkpt>
      <trkpt lat="42.33879" lon="-0.73842">
        <ele>508.194092</ele>
        <time>2013-06-02T07:54:09Z</time>
      </trkpt>
      <trkpt lat="42.33879" lon="-0.7384">
        <ele>508.194092</ele>
        <time>2013-06-02T07:54:10Z</time>
      </trkpt>
      <trkpt lat="42.33885" lon="-0.73827">
        <ele>507.713501</ele>
        <time>2013-06-02T07:54:18Z</time>
      </trkpt>
      <trkpt lat="42.33898" lon="-0.73781">
        <ele>505.310181</ele>
        <time>2013-06-02T07:54:44Z</time>
      </trkpt>
      <trkpt lat="42.33898" lon="-0.73772">
        <ele>504.348877</ele>
        <time>2013-06-02T07:54:49Z</time>
      </trkpt>
      <trkpt lat="42.33893" lon="-0.7374">
        <ele>502.906738</ele>
        <time>2013-06-02T07:55:06Z</time>
      </trkpt>
      <trkpt lat="42.33897" lon="-0.73697">
        <ele>500.022949</ele>
        <time>2013-06-02T07:55:31Z</time>
      </trkpt>
      <trkpt lat="42.339" lon="-0.73682">
        <ele>499.061523</ele>
        <time>2013-06-02T07:55:47Z</time>
      </trkpt>
      <trkpt lat="42.33903" lon="-0.73684">
        <ele>499.542236</ele>
        <time>2013-06-02T07:55:55Z</time>
      </trkpt>
      <trkpt lat="42.33913" lon="-0.73717">
        <ele>500.022949</ele>
        <time>2013-06-02T07:56:19Z</time>
      </trkpt>
      <trkpt lat="42.33921" lon="-0.73725">
        <ele>503.387451</ele>
        <time>2013-06-02T07:56:28Z</time>
      </trkpt>
      <trkpt lat="42.33941" lon="-0.73736">
        <ele>505.310181</ele>
        <time>2013-06-02T07:56:49Z</time>
      </trkpt>
      <trkpt lat="42.33957" lon="-0.73756">
        <ele>507.713501</ele>
        <time>2013-06-02T07:57:10Z</time>
      </trkpt>
      <trkpt lat="42.33967" lon="-0.73771">
        <ele>510.59729</ele>
        <time>2013-06-02T07:57:26Z</time>
      </trkpt>
      <trkpt lat="42.33973" lon="-0.73777">
        <ele>513.481445</ele>
        <time>2013-06-02T07:57:34Z</time>
      </trkpt>
      <trkpt lat="42.33975" lon="-0.73777">
        <ele>513.481445</ele>
        <time>2013-06-02T07:57:36Z</time>
      </trkpt>
      <trkpt lat="42.33988" lon="-0.73758">
        <ele>513.481445</ele>
        <time>2013-06-02T07:57:54Z</time>
      </trkpt>
      <trkpt lat="42.33994" lon="-0.73746">
        <ele>516.365234</ele>
        <time>2013-06-02T07:58:05Z</time>
      </trkpt>
      <trkpt lat="42.34002" lon="-0.73735">
        <ele>518.287842</ele>
        <time>2013-06-02T07:58:16Z</time>
      </trkpt>
      <trkpt lat="42.34009" lon="-0.73727">
        <ele>519.249268</ele>
        <time>2013-06-02T07:58:25Z</time>
      </trkpt>
      <trkpt lat="42.34015" lon="-0.7372">
        <ele>520.210571</ele>
        <time>2013-06-02T07:58:32Z</time>
      </trkpt>
      <trkpt lat="42.34026" lon="-0.73708">
        <ele>523.094604</ele>
        <time>2013-06-02T07:58:46Z</time>
      </trkpt>
      <trkpt lat="42.34048" lon="-0.7369">
        <ele>525.497803</ele>
        <time>2013-06-02T07:59:09Z</time>
      </trkpt>
      <trkpt lat="42.34069" lon="-0.73671">
        <ele>525.017212</ele>
        <time>2013-06-02T07:59:31Z</time>
      </trkpt>
      <trkpt lat="42.34075" lon="-0.73667">
        <ele>527.901001</ele>
        <time>2013-06-02T07:59:37Z</time>
      </trkpt>
      <trkpt lat="42.34096" lon="-0.73655">
        <ele>529.82373</ele>
        <time>2013-06-02T07:59:58Z</time>
      </trkpt>
      <trkpt lat="42.34099" lon="-0.73652">
        <ele>528.381836</ele>
        <time>2013-06-02T08:00:01Z</time>
      </trkpt>
      <trkpt lat="42.34115" lon="-0.73627">
        <ele>529.34314</ele>
        <time>2013-06-02T08:00:22Z</time>
      </trkpt>
      <trkpt lat="42.34118" lon="-0.73593">
        <ele>530.304443</ele>
        <time>2013-06-02T08:00:42Z</time>
      </trkpt>
      <trkpt lat="42.34106" lon="-0.73553">
        <ele>531.265747</ele>
        <time>2013-06-02T08:01:08Z</time>
      </trkpt>
      <trkpt lat="42.34098" lon="-0.73522">
        <ele>534.630371</ele>
        <time>2013-06-02T08:01:30Z</time>
      </trkpt>
      <trkpt lat="42.34098" lon="-0.73499">
        <ele>536.072388</ele>
        <time>2013-06-02T08:01:49Z</time>
      </trkpt>
      <trkpt lat="42.34098" lon="-0.73494">
        <ele>536.553101</ele>
        <time>2013-06-02T08:02:07Z</time>
      </trkpt>
      <trkpt lat="42.34099" lon="-0.73492">
        <ele>536.553101</ele>
        <time>2013-06-02T08:03:04Z</time>
      </trkpt>
      <trkpt lat="42.34099" lon="-0.73492">
        <ele>535.110962</ele>
        <time>2013-06-02T08:03:11Z</time>
      </trkpt>
      <trkpt lat="42.341" lon="-0.73493">
        <ele>536.072388</ele>
        <time>2013-06-02T08:04:06Z</time>
      </trkpt>
      <trkpt lat="42.34099" lon="-0.73494">
        <ele>537.033691</ele>
        <time>2013-06-02T08:06:04Z</time>
      </trkpt>
      <trkpt lat="42.34098" lon="-0.73483">
        <ele>536.553101</ele>
        <time>2013-06-02T08:06:17Z</time>
      </trkpt>
      <trkpt lat="42.34105" lon="-0.73463">
        <ele>533.188354</ele>
        <time>2013-06-02T08:06:33Z</time>
      </trkpt>
      <trkpt lat="42.34115" lon="-0.73437">
        <ele>530.304443</ele>
        <time>2013-06-02T08:06:52Z</time>
      </trkpt>
      <trkpt lat="42.34118" lon="-0.73425">
        <ele>527.901001</ele>
        <time>2013-06-02T08:07:00Z</time>
      </trkpt>
      <trkpt lat="42.34125" lon="-0.73411">
        <ele>526.939819</ele>
        <time>2013-06-02T08:07:11Z</time>
      </trkpt>
      <trkpt lat="42.34131" lon="-0.73406">
        <ele>527.901001</ele>
        <time>2013-06-02T08:07:17Z</time>
      </trkpt>
      <trkpt lat="42.34144" lon="-0.73406">
        <ele>529.34314</ele>
        <time>2013-06-02T08:07:33Z</time>
      </trkpt>
      <trkpt lat="42.34165" lon="-0.73407">
        <ele>530.304443</ele>
        <time>2013-06-02T08:07:51Z</time>
      </trkpt>
      <trkpt lat="42.34167" lon="-0.734">
        <ele>531.265747</ele>
        <time>2013-06-02T08:08:04Z</time>
      </trkpt>
      <trkpt lat="42.34166" lon="-0.73403">
        <ele>531.265747</ele>
        <time>2013-06-02T08:08:47Z</time>
      </trkpt>
      <trkpt lat="42.34174" lon="-0.73405">
        <ele>530.304443</ele>
        <time>2013-06-02T08:08:53Z</time>
      </trkpt>
      <trkpt lat="42.3418" lon="-0.73402">
        <ele>531.265747</ele>
        <time>2013-06-02T08:08:57Z</time>
      </trkpt>
      <trkpt lat="42.34201" lon="-0.73387">
        <ele>533.668945</ele>
        <time>2013-06-02T08:09:16Z</time>
      </trkpt>
      <trkpt lat="42.3421" lon="-0.73377">
        <ele>536.553101</ele>
        <time>2013-06-02T08:09:26Z</time>
      </trkpt>
      <trkpt lat="42.34231" lon="-0.7337">
        <ele>539.43689</ele>
        <time>2013-06-02T08:09:45Z</time>
      </trkpt>
      <trkpt lat="42.34235" lon="-0.7337">
        <ele>539.917603</ele>
        <time>2013-06-02T08:09:48Z</time>
      </trkpt>
      <trkpt lat="42.34242" lon="-0.73364">
        <ele>541.359497</ele>
        <time>2013-06-02T08:09:55Z</time>
      </trkpt>
      <trkpt lat="42.34262" lon="-0.73349">
        <ele>543.282104</ele>
        <time>2013-06-02T08:10:16Z</time>
      </trkpt>
      <trkpt lat="42.34267" lon="-0.73344">
        <ele>544.724243</ele>
        <time>2013-06-02T08:10:28Z</time>
      </trkpt>
      <trkpt lat="42.34271" lon="-0.73336">
        <ele>545.204834</ele>
        <time>2013-06-02T08:10:46Z</time>
      </trkpt>
      <trkpt lat="42.34278" lon="-0.73322">
        <ele>548.088867</ele>
        <time>2013-06-02T08:11:05Z</time>
      </trkpt>
      <trkpt lat="42.34279" lon="-0.7332">
        <ele>549.050049</ele>
        <time>2013-06-02T08:11:07Z</time>
      </trkpt>
      <trkpt lat="42.3428" lon="-0.73319">
        <ele>549.530762</ele>
        <time>2013-06-02T08:11:22Z</time>
      </trkpt>
      <trkpt lat="42.34287" lon="-0.73302">
        <ele>550.492188</ele>
        <time>2013-06-02T08:11:37Z</time>
      </trkpt>
      <trkpt lat="42.34303" lon="-0.73278">
        <ele>553.856689</ele>
        <time>2013-06-02T08:11:56Z</time>
      </trkpt>
      <trkpt lat="42.34325" lon="-0.73252">
        <ele>557.221436</ele>
        <time>2013-06-02T08:12:21Z</time>
      </trkpt>
      <trkpt lat="42.34326" lon="-0.73251">
        <ele>557.702148</ele>
        <time>2013-06-02T08:12:22Z</time>
      </trkpt>
      <trkpt lat="42.34338" lon="-0.73228">
        <ele>560.105225</ele>
        <time>2013-06-02T08:12:42Z</time>
      </trkpt>
      <trkpt lat="42.34339" lon="-0.73224">
        <ele>561.06665</ele>
        <time>2013-06-02T08:12:46Z</time>
      </trkpt>
      <trkpt lat="42.34341" lon="-0.73218">
        <ele>561.547363</ele>
        <time>2013-06-02T08:12:51Z</time>
      </trkpt>
      <trkpt lat="42.34347" lon="-0.73198">
        <ele>564.431152</ele>
        <time>2013-06-02T08:13:09Z</time>
      </trkpt>
      <trkpt lat="42.34358" lon="-0.73186">
        <ele>567.795654</ele>
        <time>2013-06-02T08:13:27Z</time>
      </trkpt>
      <trkpt lat="42.34362" lon="-0.73184">
        <ele>567.795654</ele>
        <time>2013-06-02T08:13:31Z</time>
      </trkpt>
      <trkpt lat="42.34377" lon="-0.73176">
        <ele>570.679688</ele>
        <time>2013-06-02T08:13:49Z</time>
      </trkpt>
      <trkpt lat="42.3439" lon="-0.73166">
        <ele>571.640869</ele>
        <time>2013-06-02T08:14:06Z</time>
      </trkpt>
      <trkpt lat="42.34393" lon="-0.73164">
        <ele>572.121826</ele>
        <time>2013-06-02T08:14:21Z</time>
      </trkpt>
      <trkpt lat="42.34417" lon="-0.73167">
        <ele>574.525146</ele>
        <time>2013-06-02T08:14:41Z</time>
      </trkpt>
      <trkpt lat="42.34444" lon="-0.73167">
        <ele>575.005859</ele>
        <time>2013-06-02T08:15:03Z</time>
      </trkpt>
      <trkpt lat="42.34452" lon="-0.73166">
        <ele>574.525146</ele>
        <time>2013-06-02T08:15:10Z</time>
      </trkpt>
      <trkpt lat="42.34455" lon="-0.73165">
        <ele>574.044434</ele>
        <time>2013-06-02T08:15:13Z</time>
      </trkpt>
      <trkpt lat="42.3446" lon="-0.73164">
        <ele>574.525146</ele>
        <time>2013-06-02T08:15:18Z</time>
      </trkpt>
      <trkpt lat="42.3447" lon="-0.73153">
        <ele>575.005859</ele>
        <time>2013-06-02T08:15:35Z</time>
      </trkpt>
      <trkpt lat="42.34479" lon="-0.73141">
        <ele>574.525146</ele>
        <time>2013-06-02T08:15:51Z</time>
      </trkpt>
      <trkpt lat="42.34484" lon="-0.73131">
        <ele>574.044434</ele>
        <time>2013-06-02T08:16:16Z</time>
      </trkpt>
      <trkpt lat="42.34489" lon="-0.73117">
        <ele>574.044434</ele>
        <time>2013-06-02T08:16:33Z</time>
      </trkpt>
      <trkpt lat="42.34507" lon="-0.73081">
        <ele>573.563965</ele>
        <time>2013-06-02T08:16:57Z</time>
      </trkpt>
      <trkpt lat="42.34532" lon="-0.73039">
        <ele>573.563965</ele>
        <time>2013-06-02T08:17:27Z</time>
      </trkpt>
      <trkpt lat="42.34535" lon="-0.73025">
        <ele>573.563965</ele>
        <time>2013-06-02T08:17:36Z</time>
      </trkpt>
      <trkpt lat="42.34543" lon="-0.73028">
        <ele>573.563965</ele>
        <time>2013-06-02T08:17:42Z</time>
      </trkpt>
      <trkpt lat="42.34553" lon="-0.73053">
        <ele>576.447754</ele>
        <time>2013-06-02T08:17:57Z</time>
      </trkpt>
      <trkpt lat="42.34571" lon="-0.7308">
        <ele>579.812256</ele>
        <time>2013-06-02T08:18:17Z</time>
      </trkpt>
      <trkpt lat="42.34579" lon="-0.73089">
        <ele>580.292969</ele>
        <time>2013-06-02T08:18:29Z</time>
      </trkpt>
      <trkpt lat="42.34594" lon="-0.73116">
        <ele>582.215576</ele>
        <time>2013-06-02T08:18:50Z</time>
      </trkpt>
      <trkpt lat="42.34619" lon="-0.7312">
        <ele>583.657471</ele>
        <time>2013-06-02T08:19:11Z</time>
      </trkpt>
      <trkpt lat="42.34643" lon="-0.73119">
        <ele>584.618896</ele>
        <time>2013-06-02T08:19:32Z</time>
      </trkpt>
      <trkpt lat="42.34664" lon="-0.73103">
        <ele>586.060791</ele>
        <time>2013-06-02T08:19:53Z</time>
      </trkpt>
      <trkpt lat="42.34679" lon="-0.73094">
        <ele>587.983398</ele>
        <time>2013-06-02T08:20:08Z</time>
      </trkpt>
      <trkpt lat="42.3468" lon="-0.73094">
        <ele>588.464355</ele>
        <time>2013-06-02T08:20:09Z</time>
      </trkpt>
      <trkpt lat="42.34696" lon="-0.73084">
        <ele>589.425537</ele>
        <time>2013-06-02T08:20:28Z</time>
      </trkpt>
      <trkpt lat="42.34708" lon="-0.7308">
        <ele>591.348145</ele>
        <time>2013-06-02T08:20:42Z</time>
      </trkpt>
      <trkpt lat="42.34715" lon="-0.73078">
        <ele>592.30957</ele>
        <time>2013-06-02T08:20:57Z</time>
      </trkpt>
      <trkpt lat="42.34729" lon="-0.73069">
        <ele>593.270752</ele>
        <time>2013-06-02T08:21:15Z</time>
      </trkpt>
      <trkpt lat="42.34748" lon="-0.7306">
        <ele>594.712646</ele>
        <time>2013-06-02T08:21:36Z</time>
      </trkpt>
      <trkpt lat="42.34752" lon="-0.73059">
        <ele>596.635498</ele>
        <time>2013-06-02T08:21:40Z</time>
      </trkpt>
      <trkpt lat="42.34771" lon="-0.73053">
        <ele>600</ele>
        <time>2013-06-02T08:21:59Z</time>
      </trkpt>
      <trkpt lat="42.34781" lon="-0.73043">
        <ele>600.480713</ele>
        <time>2013-06-02T08:22:11Z</time>
      </trkpt>
      <trkpt lat="42.34786" lon="-0.73021">
        <ele>603.845215</ele>
        <time>2013-06-02T08:22:29Z</time>
      </trkpt>
      <trkpt lat="42.34788" lon="-0.73002">
        <ele>607.209961</ele>
        <time>2013-06-02T08:22:45Z</time>
      </trkpt>
      <trkpt lat="42.34792" lon="-0.72984">
        <ele>609.132568</ele>
        <time>2013-06-02T08:23:03Z</time>
      </trkpt>
      <trkpt lat="42.34797" lon="-0.72972">
        <ele>611.055176</ele>
        <time>2013-06-02T08:23:16Z</time>
      </trkpt>
      <trkpt lat="42.34801" lon="-0.72961">
        <ele>612.49707</ele>
        <time>2013-06-02T08:23:29Z</time>
      </trkpt>
      <trkpt lat="42.348" lon="-0.72954">
        <ele>612.977783</ele>
        <time>2013-06-02T08:23:42Z</time>
      </trkpt>
      <trkpt lat="42.34801" lon="-0.72952">
        <ele>612.977783</ele>
        <time>2013-06-02T08:23:53Z</time>
      </trkpt>
      <trkpt lat="42.34803" lon="-0.72948">
        <ele>614.419678</ele>
        <time>2013-06-02T08:23:57Z</time>
      </trkpt>
      <trkpt lat="42.34808" lon="-0.72933">
        <ele>617.78418</ele>
        <time>2013-06-02T08:24:10Z</time>
      </trkpt>
      <trkpt lat="42.34816" lon="-0.7291">
        <ele>619.226318</ele>
        <time>2013-06-02T08:24:31Z</time>
      </trkpt>
      <trkpt lat="42.34816" lon="-0.72908">
        <ele>620.187744</ele>
        <time>2013-06-02T08:24:48Z</time>
      </trkpt>
      <trkpt lat="42.34815" lon="-0.72893">
        <ele>620.668457</ele>
        <time>2013-06-02T08:25:00Z</time>
      </trkpt>
      <trkpt lat="42.3481" lon="-0.72872">
        <ele>624.994385</ele>
        <time>2013-06-02T08:25:18Z</time>
      </trkpt>
      <trkpt lat="42.34803" lon="-0.72851">
        <ele>627.878174</ele>
        <time>2013-06-02T08:25:36Z</time>
      </trkpt>
      <trkpt lat="42.34814" lon="-0.72826">
        <ele>631.24292</ele>
        <time>2013-06-02T08:25:57Z</time>
      </trkpt>
      <trkpt lat="42.34817" lon="-0.72824">
        <ele>630.762207</ele>
        <time>2013-06-02T08:26:01Z</time>
      </trkpt>
      <trkpt lat="42.34831" lon="-0.72825">
        <ele>632.684814</ele>
        <time>2013-06-02T08:26:15Z</time>
      </trkpt>
      <trkpt lat="42.34835" lon="-0.72817">
        <ele>634.126709</ele>
        <time>2013-06-02T08:26:23Z</time>
      </trkpt>
      <trkpt lat="42.34837" lon="-0.72801">
        <ele>635.568604</ele>
        <time>2013-06-02T08:26:37Z</time>
      </trkpt>
      <trkpt lat="42.34838" lon="-0.72797">
        <ele>637.491455</ele>
        <time>2013-06-02T08:26:40Z</time>
      </trkpt>
      <trkpt lat="42.34842" lon="-0.72781">
        <ele>640.855957</ele>
        <time>2013-06-02T08:26:54Z</time>
      </trkpt>
      <trkpt lat="42.34843" lon="-0.72779">
        <ele>640.855957</ele>
        <time>2013-06-02T08:26:55Z</time>
      </trkpt>
      <trkpt lat="42.34842" lon="-0.72773">
        <ele>641.33667</ele>
        <time>2013-06-02T08:27:03Z</time>
      </trkpt>
      <trkpt lat="42.34856" lon="-0.7276">
        <ele>642.298096</ele>
        <time>2013-06-02T08:27:21Z</time>
      </trkpt>
      <trkpt lat="42.34873" lon="-0.72745">
        <ele>642.298096</ele>
        <time>2013-06-02T08:27:41Z</time>
      </trkpt>
      <trkpt lat="42.34882" lon="-0.72748">
        <ele>642.778809</ele>
        <time>2013-06-02T08:27:55Z</time>
      </trkpt>
      <trkpt lat="42.34894" lon="-0.72753">
        <ele>646.143311</ele>
        <time>2013-06-02T08:28:10Z</time>
      </trkpt>
      <trkpt lat="42.34898" lon="-0.72753">
        <ele>646.624023</ele>
        <time>2013-06-02T08:28:15Z</time>
      </trkpt>
      <trkpt lat="42.34912" lon="-0.72752">
        <ele>649.988525</ele>
        <time>2013-06-02T08:28:29Z</time>
      </trkpt>
      <trkpt lat="42.34922" lon="-0.72753">
        <ele>650.949707</ele>
        <time>2013-06-02T08:28:40Z</time>
      </trkpt>
      <trkpt lat="42.34932" lon="-0.72759">
        <ele>651.911133</ele>
        <time>2013-06-02T08:28:56Z</time>
      </trkpt>
      <trkpt lat="42.34931" lon="-0.72763">
        <ele>650.949707</ele>
        <time>2013-06-02T08:29:00Z</time>
      </trkpt>
      <trkpt lat="42.34933" lon="-0.72793">
        <ele>651.43042</ele>
        <time>2013-06-02T08:29:21Z</time>
      </trkpt>
      <trkpt lat="42.34935" lon="-0.72806">
        <ele>650.949707</ele>
        <time>2013-06-02T08:29:40Z</time>
      </trkpt>
      <trkpt lat="42.34936" lon="-0.72825">
        <ele>650.949707</ele>
        <time>2013-06-02T08:29:56Z</time>
      </trkpt>
      <trkpt lat="42.34937" lon="-0.72835">
        <ele>650.469238</ele>
        <time>2013-06-02T08:30:15Z</time>
      </trkpt>
      <trkpt lat="42.34938" lon="-0.72844">
        <ele>650.469238</ele>
        <time>2013-06-02T08:30:59Z</time>
      </trkpt>
      <trkpt lat="42.34939" lon="-0.72843">
        <ele>650.469238</ele>
        <time>2013-06-02T08:32:01Z</time>
      </trkpt>
      <trkpt lat="42.34938" lon="-0.72845">
        <ele>649.988525</ele>
        <time>2013-06-02T08:32:57Z</time>
      </trkpt>
      <trkpt lat="42.34937" lon="-0.72846">
        <ele>649.988525</ele>
        <time>2013-06-02T08:33:33Z</time>
      </trkpt>
      <trkpt lat="42.3494" lon="-0.72849">
        <ele>650.469238</ele>
        <time>2013-06-02T08:33:46Z</time>
      </trkpt>
      <trkpt lat="42.3495" lon="-0.72868">
        <ele>650.469238</ele>
        <time>2013-06-02T08:34:05Z</time>
      </trkpt>
      <trkpt lat="42.34954" lon="-0.72876">
        <ele>650.949707</ele>
        <time>2013-06-02T08:34:13Z</time>
      </trkpt>
      <trkpt lat="42.34955" lon="-0.72878">
        <ele>651.43042</ele>
        <time>2013-06-02T08:34:15Z</time>
      </trkpt>
      <trkpt lat="42.3496" lon="-0.72886">
        <ele>651.911133</ele>
        <time>2013-06-02T08:34:23Z</time>
      </trkpt>
      <trkpt lat="42.34962" lon="-0.72889">
        <ele>654.314697</ele>
        <time>2013-06-02T08:34:26Z</time>
      </trkpt>
      <trkpt lat="42.34977" lon="-0.72909">
        <ele>655.275879</ele>
        <time>2013-06-02T08:34:45Z</time>
      </trkpt>
      <trkpt lat="42.34985" lon="-0.72919">
        <ele>653.353271</ele>
        <time>2013-06-02T08:35:02Z</time>
      </trkpt>
      <trkpt lat="42.34986" lon="-0.72918">
        <ele>651.911133</ele>
        <time>2013-06-02T08:35:05Z</time>
      </trkpt>
      <trkpt lat="42.34987" lon="-0.7292">
        <ele>651.911133</ele>
        <time>2013-06-02T08:35:31Z</time>
      </trkpt>
      <trkpt lat="42.34999" lon="-0.72931">
        <ele>653.353271</ele>
        <time>2013-06-02T08:35:45Z</time>
      </trkpt>
      <trkpt lat="42.3502" lon="-0.72948">
        <ele>652.872559</ele>
        <time>2013-06-02T08:36:06Z</time>
      </trkpt>
      <trkpt lat="42.35043" lon="-0.72958">
        <ele>653.833984</ele>
        <time>2013-06-02T08:36:27Z</time>
      </trkpt>
      <trkpt lat="42.35062" lon="-0.72958">
        <ele>655.275879</ele>
        <time>2013-06-02T08:36:44Z</time>
      </trkpt>
      <trkpt lat="42.35082" lon="-0.72954">
        <ele>654.795166</ele>
        <time>2013-06-02T08:37:03Z</time>
      </trkpt>
      <trkpt lat="42.35084" lon="-0.72953">
        <ele>655.275879</ele>
        <time>2013-06-02T08:37:06Z</time>
      </trkpt>
      <trkpt lat="42.35083" lon="-0.72953">
        <ele>655.756592</ele>
        <time>2013-06-02T08:37:12Z</time>
      </trkpt>
      <trkpt lat="42.35097" lon="-0.72948">
        <ele>656.717773</ele>
        <time>2013-06-02T08:37:24Z</time>
      </trkpt>
      <trkpt lat="42.35119" lon="-0.7294">
        <ele>657.198486</ele>
        <time>2013-06-02T08:37:44Z</time>
      </trkpt>
      <trkpt lat="42.35125" lon="-0.72936">
        <ele>658.159912</ele>
        <time>2013-06-02T08:37:59Z</time>
      </trkpt>
      <trkpt lat="42.3513" lon="-0.72929">
        <ele>658.159912</ele>
        <time>2013-06-02T08:38:17Z</time>
      </trkpt>
      <trkpt lat="42.35132" lon="-0.72927">
        <ele>658.640381</ele>
        <time>2013-06-02T08:38:20Z</time>
      </trkpt>
      <trkpt lat="42.35133" lon="-0.72924">
        <ele>659.121094</ele>
        <time>2013-06-02T08:38:23Z</time>
      </trkpt>
      <trkpt lat="42.35139" lon="-0.72918">
        <ele>657.679199</ele>
        <time>2013-06-02T08:38:32Z</time>
      </trkpt>
      <trkpt lat="42.35148" lon="-0.7291">
        <ele>659.601807</ele>
        <time>2013-06-02T08:38:49Z</time>
      </trkpt>
      <trkpt lat="42.35156" lon="-0.72902">
        <ele>661.043701</ele>
        <time>2013-06-02T08:39:04Z</time>
      </trkpt>
      <trkpt lat="42.35162" lon="-0.72894">
        <ele>662.005127</ele>
        <time>2013-06-02T08:39:17Z</time>
      </trkpt>
      <trkpt lat="42.35174" lon="-0.72889">
        <ele>663.92749</ele>
        <time>2013-06-02T08:39:33Z</time>
      </trkpt>
      <trkpt lat="42.35183" lon="-0.72883">
        <ele>664.888916</ele>
        <time>2013-06-02T08:39:44Z</time>
      </trkpt>
      <trkpt lat="42.35197" lon="-0.7287">
        <ele>667.772705</ele>
        <time>2013-06-02T08:40:04Z</time>
      </trkpt>
      <trkpt lat="42.35199" lon="-0.72869">
        <ele>669.215088</ele>
        <time>2013-06-02T08:40:06Z</time>
      </trkpt>
      <trkpt lat="42.35203" lon="-0.72855">
        <ele>670.656982</ele>
        <time>2013-06-02T08:40:24Z</time>
      </trkpt>
      <trkpt lat="42.35196" lon="-0.72852">
        <ele>672.098877</ele>
        <time>2013-06-02T08:40:35Z</time>
      </trkpt>
      <trkpt lat="42.35185" lon="-0.72851">
        <ele>673.541016</ele>
        <time>2013-06-02T08:40:49Z</time>
      </trkpt>
      <trkpt lat="42.35177" lon="-0.72845">
        <ele>676.424805</ele>
        <time>2013-06-02T08:41:04Z</time>
      </trkpt>
      <trkpt lat="42.35185" lon="-0.72831">
        <ele>680.27002</ele>
        <time>2013-06-02T08:41:20Z</time>
      </trkpt>
      <trkpt lat="42.35195" lon="-0.7282">
        <ele>683.634521</ele>
        <time>2013-06-02T08:41:36Z</time>
      </trkpt>
      <trkpt lat="42.3521" lon="-0.72809">
        <ele>686.999268</ele>
        <time>2013-06-02T08:41:57Z</time>
      </trkpt>
      <trkpt lat="42.35204" lon="-0.72799">
        <ele>689.402588</ele>
        <time>2013-06-02T08:42:14Z</time>
      </trkpt>
      <trkpt lat="42.35196" lon="-0.72796">
        <ele>693.247803</ele>
        <time>2013-06-02T08:42:23Z</time>
      </trkpt>
      <trkpt lat="42.35195" lon="-0.72796">
        <ele>690.364014</ele>
        <time>2013-06-02T08:42:24Z</time>
      </trkpt>
      <trkpt lat="42.35182" lon="-0.72791">
        <ele>693.728516</ele>
        <time>2013-06-02T08:42:38Z</time>
      </trkpt>
      <trkpt lat="42.35177" lon="-0.72789">
        <ele>694.209229</ele>
        <time>2013-06-02T08:42:44Z</time>
      </trkpt>
      <trkpt lat="42.35168" lon="-0.72785">
        <ele>697.093018</ele>
        <time>2013-06-02T08:42:58Z</time>
      </trkpt>
      <trkpt lat="42.35173" lon="-0.72774">
        <ele>699.496338</ele>
        <time>2013-06-02T08:43:13Z</time>
      </trkpt>
      <trkpt lat="42.35183" lon="-0.72764">
        <ele>702.861084</ele>
        <time>2013-06-02T08:43:29Z</time>
      </trkpt>
      <trkpt lat="42.35195" lon="-0.72756">
        <ele>704.783691</ele>
        <time>2013-06-02T08:43:47Z</time>
      </trkpt>
      <trkpt lat="42.35196" lon="-0.72755">
        <ele>705.745117</ele>
        <time>2013-06-02T08:43:48Z</time>
      </trkpt>
      <trkpt lat="42.35204" lon="-0.7275">
        <ele>708.628906</ele>
        <time>2013-06-02T08:43:59Z</time>
      </trkpt>
      <trkpt lat="42.35213" lon="-0.72743">
        <ele>711.993652</ele>
        <time>2013-06-02T08:44:14Z</time>
      </trkpt>
      <trkpt lat="42.35219" lon="-0.72729">
        <ele>712.954834</ele>
        <time>2013-06-02T08:44:33Z</time>
      </trkpt>
      <trkpt lat="42.35223" lon="-0.72717">
        <ele>715.838867</ele>
        <time>2013-06-02T08:44:50Z</time>
      </trkpt>
      <trkpt lat="42.35226" lon="-0.72707">
        <ele>716.800293</ele>
        <time>2013-06-02T08:45:06Z</time>
      </trkpt>
      <trkpt lat="42.35231" lon="-0.72699">
        <ele>718.242188</ele>
        <time>2013-06-02T08:45:16Z</time>
      </trkpt>
      <trkpt lat="42.3524" lon="-0.72692">
        <ele>721.606689</ele>
        <time>2013-06-02T08:45:32Z</time>
      </trkpt>
      <trkpt lat="42.35253" lon="-0.7269">
        <ele>724.490723</ele>
        <time>2013-06-02T08:45:53Z</time>
      </trkpt>
      <trkpt lat="42.35259" lon="-0.72685">
        <ele>727.855225</ele>
        <time>2013-06-02T08:46:04Z</time>
      </trkpt>
      <trkpt lat="42.35264" lon="-0.72674">
        <ele>731.219971</ele>
        <time>2013-06-02T08:46:18Z</time>
      </trkpt>
      <trkpt lat="42.35269" lon="-0.72662">
        <ele>734.584717</ele>
        <time>2013-06-02T08:46:34Z</time>
      </trkpt>
      <trkpt lat="42.35274" lon="-0.72653">
        <ele>737.949219</ele>
        <time>2013-06-02T08:46:48Z</time>
      </trkpt>
      <trkpt lat="42.35284" lon="-0.72645">
        <ele>740.833008</ele>
        <time>2013-06-02T08:47:07Z</time>
      </trkpt>
      <trkpt lat="42.35302" lon="-0.72645">
        <ele>744.197754</ele>
        <time>2013-06-02T08:47:34Z</time>
      </trkpt>
      <trkpt lat="42.35321" lon="-0.72648">
        <ele>747.081543</ele>
        <time>2013-06-02T08:48:05Z</time>
      </trkpt>
      <trkpt lat="42.35328" lon="-0.72656">
        <ele>748.523682</ele>
        <time>2013-06-02T08:48:17Z</time>
      </trkpt>
      <trkpt lat="42.35335" lon="-0.72668">
        <ele>749.96582</ele>
        <time>2013-06-02T08:48:48Z</time>
      </trkpt>
      <trkpt lat="42.35338" lon="-0.72674">
        <ele>751.888428</ele>
        <time>2013-06-02T08:49:01Z</time>
      </trkpt>
      <trkpt lat="42.35344" lon="-0.72678">
        <ele>751.888428</ele>
        <time>2013-06-02T08:49:44Z</time>
      </trkpt>
      <trkpt lat="42.35354" lon="-0.72683">
        <ele>754.291748</ele>
        <time>2013-06-02T08:51:03Z</time>
      </trkpt>
      <trkpt lat="42.35356" lon="-0.72688">
        <ele>756.694824</ele>
        <time>2013-06-02T08:51:14Z</time>
      </trkpt>
      <trkpt lat="42.35361" lon="-0.72698">
        <ele>759.578857</ele>
        <time>2013-06-02T08:51:30Z</time>
      </trkpt>
      <trkpt lat="42.35361" lon="-0.72699">
        <ele>760.059326</ele>
        <time>2013-06-02T08:51:31Z</time>
      </trkpt>
      <trkpt lat="42.35364" lon="-0.72711">
        <ele>763.424072</ele>
        <time>2013-06-02T08:51:48Z</time>
      </trkpt>
      <trkpt lat="42.3537" lon="-0.72718">
        <ele>764.866211</ele>
        <time>2013-06-02T08:52:02Z</time>
      </trkpt>
      <trkpt lat="42.35376" lon="-0.72721">
        <ele>767.269531</ele>
        <time>2013-06-02T08:52:14Z</time>
      </trkpt>
      <trkpt lat="42.35387" lon="-0.72723">
        <ele>770.634033</ele>
        <time>2013-06-02T08:52:31Z</time>
      </trkpt>
      <trkpt lat="42.35389" lon="-0.7271">
        <ele>772.556641</ele>
        <time>2013-06-02T08:52:46Z</time>
      </trkpt>
      <trkpt lat="42.35389" lon="-0.72695">
        <ele>774.959961</ele>
        <time>2013-06-02T08:53:04Z</time>
      </trkpt>
      <trkpt lat="42.35394" lon="-0.72685">
        <ele>777.84375</ele>
        <time>2013-06-02T08:53:18Z</time>
      </trkpt>
      <trkpt lat="42.35402" lon="-0.7269">
        <ele>780.247314</ele>
        <time>2013-06-02T08:53:33Z</time>
      </trkpt>
      <trkpt lat="42.3541" lon="-0.72691">
        <ele>781.689209</ele>
        <time>2013-06-02T08:53:50Z</time>
      </trkpt>
      <trkpt lat="42.35412" lon="-0.72691">
        <ele>783.611816</ele>
        <time>2013-06-02T08:53:53Z</time>
      </trkpt>
      <trkpt lat="42.35423" lon="-0.72695">
        <ele>786.49585</ele>
        <time>2013-06-02T08:54:09Z</time>
      </trkpt>
      <trkpt lat="42.35431" lon="-0.72697">
        <ele>789.379639</ele>
        <time>2013-06-02T08:54:22Z</time>
      </trkpt>
      <trkpt lat="42.35433" lon="-0.72699">
        <ele>789.379639</ele>
        <time>2013-06-02T08:54:27Z</time>
      </trkpt>
      <trkpt lat="42.35439" lon="-0.72699">
        <ele>792.744385</ele>
        <time>2013-06-02T08:54:43Z</time>
      </trkpt>
      <trkpt lat="42.35446" lon="-0.72701">
        <ele>795.628174</ele>
        <time>2013-06-02T08:55:00Z</time>
      </trkpt>
      <trkpt lat="42.35448" lon="-0.72696">
        <ele>796.109131</ele>
        <time>2013-06-02T08:55:07Z</time>
      </trkpt>
      <trkpt lat="42.35448" lon="-0.72688">
        <ele>798.512207</ele>
        <time>2013-06-02T08:55:16Z</time>
      </trkpt>
      <trkpt lat="42.35448" lon="-0.72682">
        <ele>801.39624</ele>
        <time>2013-06-02T08:55:25Z</time>
      </trkpt>
      <trkpt lat="42.35455" lon="-0.72684">
        <ele>802.838135</ele>
        <time>2013-06-02T08:55:39Z</time>
      </trkpt>
      <trkpt lat="42.3546" lon="-0.72693">
        <ele>805.722168</ele>
        <time>2013-06-02T08:55:49Z</time>
      </trkpt>
      <trkpt lat="42.35464" lon="-0.727">
        <ele>807.164062</ele>
        <time>2013-06-02T08:56:04Z</time>
      </trkpt>
      <trkpt lat="42.35464" lon="-0.72705">
        <ele>808.125488</ele>
        <time>2013-06-02T08:56:22Z</time>
      </trkpt>
      <trkpt lat="42.3547" lon="-0.72714">
        <ele>810.047852</ele>
        <time>2013-06-02T08:56:38Z</time>
      </trkpt>
      <trkpt lat="42.35474" lon="-0.72716">
        <ele>811.970703</ele>
        <time>2013-06-02T08:56:53Z</time>
      </trkpt>
      <trkpt lat="42.3548" lon="-0.72727">
        <ele>813.412842</ele>
        <time>2013-06-02T08:57:16Z</time>
      </trkpt>
      <trkpt lat="42.35482" lon="-0.72739">
        <ele>816.777344</ele>
        <time>2013-06-02T08:57:30Z</time>
      </trkpt>
      <trkpt lat="42.35484" lon="-0.72757">
        <ele>819.180664</ele>
        <time>2013-06-02T08:57:47Z</time>
      </trkpt>
      <trkpt lat="42.35484" lon="-0.72769">
        <ele>823.025879</ele>
        <time>2013-06-02T08:58:02Z</time>
      </trkpt>
      <trkpt lat="42.35484" lon="-0.7277">
        <ele>822.064453</ele>
        <time>2013-06-02T08:58:03Z</time>
      </trkpt>
      <trkpt lat="42.35485" lon="-0.72775">
        <ele>823.987061</ele>
        <time>2013-06-02T08:58:08Z</time>
      </trkpt>
      <trkpt lat="42.35484" lon="-0.72779">
        <ele>824.948486</ele>
        <time>2013-06-02T08:58:12Z</time>
      </trkpt>
      <trkpt lat="42.3549" lon="-0.72788">
        <ele>826.871094</ele>
        <time>2013-06-02T08:58:30Z</time>
      </trkpt>
      <trkpt lat="42.35499" lon="-0.728">
        <ele>829.274414</ele>
        <time>2013-06-02T08:58:47Z</time>
      </trkpt>
      <trkpt lat="42.35505" lon="-0.72811">
        <ele>832.158447</ele>
        <time>2013-06-02T08:59:03Z</time>
      </trkpt>
      <trkpt lat="42.3551" lon="-0.72809">
        <ele>833.600342</ele>
        <time>2013-06-02T08:59:10Z</time>
      </trkpt>
      <trkpt lat="42.35513" lon="-0.72797">
        <ele>834.561768</ele>
        <time>2013-06-02T08:59:23Z</time>
      </trkpt>
      <trkpt lat="42.35517" lon="-0.72797">
        <ele>837.92627</ele>
        <time>2013-06-02T08:59:30Z</time>
      </trkpt>
      <trkpt lat="42.35518" lon="-0.72797">
        <ele>837.445557</ele>
        <time>2013-06-02T08:59:31Z</time>
      </trkpt>
      <trkpt lat="42.35521" lon="-0.72807">
        <ele>839.848877</ele>
        <time>2013-06-02T08:59:46Z</time>
      </trkpt>
      <trkpt lat="42.35523" lon="-0.72817">
        <ele>842.73291</ele>
        <time>2013-06-02T08:59:56Z</time>
      </trkpt>
      <trkpt lat="42.35523" lon="-0.72831">
        <ele>845.616943</ele>
        <time>2013-06-02T09:00:11Z</time>
      </trkpt>
      <trkpt lat="42.3553" lon="-0.72841">
        <ele>847.058838</ele>
        <time>2013-06-02T09:00:29Z</time>
      </trkpt>
      <trkpt lat="42.35536" lon="-0.72838">
        <ele>848.500732</ele>
        <time>2013-06-02T09:00:42Z</time>
      </trkpt>
      <trkpt lat="42.35543" lon="-0.72841">
        <ele>849.942871</ele>
        <time>2013-06-02T09:00:56Z</time>
      </trkpt>
      <trkpt lat="42.35542" lon="-0.72853">
        <ele>853.788086</ele>
        <time>2013-06-02T09:01:10Z</time>
      </trkpt>
      <trkpt lat="42.35544" lon="-0.72857">
        <ele>854.268799</ele>
        <time>2013-06-02T09:01:14Z</time>
      </trkpt>
      <trkpt lat="42.35553" lon="-0.72864">
        <ele>855.710693</ele>
        <time>2013-06-02T09:01:28Z</time>
      </trkpt>
      <trkpt lat="42.3556" lon="-0.72868">
        <ele>859.555908</ele>
        <time>2013-06-02T09:01:39Z</time>
      </trkpt>
      <trkpt lat="42.3556" lon="-0.72868">
        <ele>858.594482</ele>
        <time>2013-06-02T09:01:40Z</time>
      </trkpt>
      <trkpt lat="42.35566" lon="-0.72871">
        <ele>860.036621</ele>
        <time>2013-06-02T09:02:02Z</time>
      </trkpt>
      <trkpt lat="42.35571" lon="-0.72866">
        <ele>861.959473</ele>
        <time>2013-06-02T09:02:22Z</time>
      </trkpt>
      <trkpt lat="42.35572" lon="-0.72864">
        <ele>863.401367</ele>
        <time>2013-06-02T09:02:25Z</time>
      </trkpt>
      <trkpt lat="42.35571" lon="-0.72859">
        <ele>863.881836</ele>
        <time>2013-06-02T09:02:42Z</time>
      </trkpt>
      <trkpt lat="42.35571" lon="-0.72858">
        <ele>862.439941</ele>
        <time>2013-06-02T09:02:55Z</time>
      </trkpt>
      <trkpt lat="42.35572" lon="-0.72858">
        <ele>862.439941</ele>
        <time>2013-06-02T09:03:53Z</time>
      </trkpt>
      <trkpt lat="42.35571" lon="-0.72859">
        <ele>862.920654</ele>
        <time>2013-06-02T09:06:33Z</time>
      </trkpt>
      <trkpt lat="42.35576" lon="-0.72859">
        <ele>863.881836</ele>
        <time>2013-06-02T09:06:46Z</time>
      </trkpt>
      <trkpt lat="42.35578" lon="-0.72856">
        <ele>865.804688</ele>
        <time>2013-06-02T09:06:51Z</time>
      </trkpt>
      <trkpt lat="42.35584" lon="-0.7284">
        <ele>867.727051</ele>
        <time>2013-06-02T09:07:10Z</time>
      </trkpt>
      <trkpt lat="42.35587" lon="-0.72827">
        <ele>871.572266</ele>
        <time>2013-06-02T09:07:26Z</time>
      </trkpt>
      <trkpt lat="42.35587" lon="-0.72826">
        <ele>872.052979</ele>
        <time>2013-06-02T09:07:28Z</time>
      </trkpt>
      <trkpt lat="42.3559" lon="-0.72824">
        <ele>874.456299</ele>
        <time>2013-06-02T09:07:33Z</time>
      </trkpt>
      <trkpt lat="42.35597" lon="-0.72812">
        <ele>876.859863</ele>
        <time>2013-06-02T09:07:52Z</time>
      </trkpt>
      <trkpt lat="42.35599" lon="-0.72806">
        <ele>879.743652</ele>
        <time>2013-06-02T09:08:04Z</time>
      </trkpt>
      <trkpt lat="42.35603" lon="-0.72798">
        <ele>883.108154</ele>
        <time>2013-06-02T09:08:19Z</time>
      </trkpt>
      <trkpt lat="42.35604" lon="-0.72789">
        <ele>885.992188</ele>
        <time>2013-06-02T09:08:32Z</time>
      </trkpt>
      <trkpt lat="42.35606" lon="-0.72783">
        <ele>887.914795</ele>
        <time>2013-06-02T09:08:42Z</time>
      </trkpt>
      <trkpt lat="42.35606" lon="-0.72773">
        <ele>889.356689</ele>
        <time>2013-06-02T09:08:58Z</time>
      </trkpt>
      <trkpt lat="42.35605" lon="-0.72766">
        <ele>889.837402</ele>
        <time>2013-06-02T09:09:17Z</time>
      </trkpt>
      <trkpt lat="42.35604" lon="-0.72761">
        <ele>892.240967</ele>
        <time>2013-06-02T09:09:41Z</time>
      </trkpt>
      <trkpt lat="42.35605" lon="-0.72752">
        <ele>895.124756</ele>
        <time>2013-06-02T09:09:55Z</time>
      </trkpt>
      <trkpt lat="42.35605" lon="-0.72749">
        <ele>896.566895</ele>
        <time>2013-06-02T09:09:59Z</time>
      </trkpt>
      <trkpt lat="42.35603" lon="-0.72737">
        <ele>899.450684</ele>
        <time>2013-06-02T09:10:14Z</time>
      </trkpt>
      <trkpt lat="42.35602" lon="-0.72723">
        <ele>901.373291</ele>
        <time>2013-06-02T09:10:31Z</time>
      </trkpt>
      <trkpt lat="42.35601" lon="-0.72721">
        <ele>901.373291</ele>
        <time>2013-06-02T09:10:58Z</time>
      </trkpt>
      <trkpt lat="42.35601" lon="-0.72714">
        <ele>904.737793</ele>
        <time>2013-06-02T09:11:25Z</time>
      </trkpt>
      <trkpt lat="42.35602" lon="-0.7271">
        <ele>906.179688</ele>
        <time>2013-06-02T09:12:01Z</time>
      </trkpt>
      <trkpt lat="42.35604" lon="-0.72698">
        <ele>909.063965</ele>
        <time>2013-06-02T09:12:14Z</time>
      </trkpt>
      <trkpt lat="42.35606" lon="-0.72691">
        <ele>912.90918</ele>
        <time>2013-06-02T09:12:24Z</time>
      </trkpt>
      <trkpt lat="42.35607" lon="-0.72691">
        <ele>912.90918</ele>
        <time>2013-06-02T09:12:25Z</time>
      </trkpt>
      <trkpt lat="42.35607" lon="-0.72687">
        <ele>914.351074</ele>
        <time>2013-06-02T09:12:30Z</time>
      </trkpt>
      <trkpt lat="42.35608" lon="-0.72676">
        <ele>917.715576</ele>
        <time>2013-06-02T09:12:43Z</time>
      </trkpt>
      <trkpt lat="42.35608" lon="-0.72675">
        <ele>917.715576</ele>
        <time>2013-06-02T09:12:44Z</time>
      </trkpt>
      <trkpt lat="42.35606" lon="-0.7267">
        <ele>919.157715</ele>
        <time>2013-06-02T09:12:50Z</time>
      </trkpt>
      <trkpt lat="42.35602" lon="-0.7266">
        <ele>920.118896</ele>
        <time>2013-06-02T09:13:06Z</time>
      </trkpt>
      <trkpt lat="42.35601" lon="-0.72652">
        <ele>923.00293</ele>
        <time>2013-06-02T09:13:22Z</time>
      </trkpt>
      <trkpt lat="42.35604" lon="-0.72644">
        <ele>924.925781</ele>
        <time>2013-06-02T09:13:38Z</time>
      </trkpt>
      <trkpt lat="42.3561" lon="-0.72639">
        <ele>928.770996</ele>
        <time>2013-06-02T09:13:51Z</time>
      </trkpt>
      <trkpt lat="42.3561" lon="-0.72639">
        <ele>928.770996</ele>
        <time>2013-06-02T09:13:52Z</time>
      </trkpt>
      <trkpt lat="42.35615" lon="-0.72638">
        <ele>931.174316</ele>
        <time>2013-06-02T09:14:05Z</time>
      </trkpt>
      <trkpt lat="42.35619" lon="-0.72638">
        <ele>932.616211</ele>
        <time>2013-06-02T09:14:20Z</time>
      </trkpt>
      <trkpt lat="42.35621" lon="-0.72643">
        <ele>934.058105</ele>
        <time>2013-06-02T09:14:34Z</time>
      </trkpt>
      <trkpt lat="42.35625" lon="-0.72645">
        <ele>935.980713</ele>
        <time>2013-06-02T09:14:56Z</time>
      </trkpt>
      <trkpt lat="42.35632" lon="-0.72654">
        <ele>938.384033</ele>
        <time>2013-06-02T09:15:12Z</time>
      </trkpt>
      <trkpt lat="42.35639" lon="-0.72659">
        <ele>941.268066</ele>
        <time>2013-06-02T09:15:28Z</time>
      </trkpt>
      <trkpt lat="42.35647" lon="-0.72668">
        <ele>945.593994</ele>
        <time>2013-06-02T09:16:20Z</time>
      </trkpt>
      <trkpt lat="42.35648" lon="-0.72666">
        <ele>946.55542</ele>
        <time>2013-06-02T09:16:22Z</time>
      </trkpt>
      <trkpt lat="42.35649" lon="-0.72664">
        <ele>946.074707</ele>
        <time>2013-06-02T09:16:24Z</time>
      </trkpt>
      <trkpt lat="42.35646" lon="-0.72643">
        <ele>947.035889</ele>
        <time>2013-06-02T09:16:40Z</time>
      </trkpt>
      <trkpt lat="42.35647" lon="-0.72628">
        <ele>949.439209</ele>
        <time>2013-06-02T09:16:54Z</time>
      </trkpt>
      <trkpt lat="42.35645" lon="-0.72609">
        <ele>951.361816</ele>
        <time>2013-06-02T09:17:10Z</time>
      </trkpt>
      <trkpt lat="42.35638" lon="-0.72594">
        <ele>953.284424</ele>
        <time>2013-06-02T09:17:26Z</time>
      </trkpt>
      <trkpt lat="42.35635" lon="-0.72589">
        <ele>953.765137</ele>
        <time>2013-06-02T09:17:32Z</time>
      </trkpt>
      <trkpt lat="42.35627" lon="-0.72578">
        <ele>953.284424</ele>
        <time>2013-06-02T09:17:51Z</time>
      </trkpt>
      <trkpt lat="42.35624" lon="-0.72567">
        <ele>953.284424</ele>
        <time>2013-06-02T09:18:55Z</time>
      </trkpt>
      <trkpt lat="42.35622" lon="-0.72565">
        <ele>952.803711</ele>
        <time>2013-06-02T09:18:57Z</time>
      </trkpt>
      <trkpt lat="42.35618" lon="-0.72562">
        <ele>953.284424</ele>
        <time>2013-06-02T09:19:01Z</time>
      </trkpt>
      <trkpt lat="42.35615" lon="-0.72554">
        <ele>954.24585</ele>
        <time>2013-06-02T09:19:08Z</time>
      </trkpt>
      <trkpt lat="42.35603" lon="-0.72537">
        <ele>955.207031</ele>
        <time>2013-06-02T09:19:26Z</time>
      </trkpt>
      <trkpt lat="42.35597" lon="-0.72522">
        <ele>957.129883</ele>
        <time>2013-06-02T09:19:40Z</time>
      </trkpt>
      <trkpt lat="42.35591" lon="-0.72501">
        <ele>956.168457</ele>
        <time>2013-06-02T09:19:58Z</time>
      </trkpt>
      <trkpt lat="42.3559" lon="-0.72498">
        <ele>956.64917</ele>
        <time>2013-06-02T09:20:00Z</time>
      </trkpt>
      <trkpt lat="42.35583" lon="-0.72483">
        <ele>957.129883</ele>
        <time>2013-06-02T09:20:16Z</time>
      </trkpt>
      <trkpt lat="42.35579" lon="-0.72474">
        <ele>959.05249</ele>
        <time>2013-06-02T09:20:28Z</time>
      </trkpt>
      <trkpt lat="42.35565" lon="-0.72459">
        <ele>960.013672</ele>
        <time>2013-06-02T09:20:46Z</time>
      </trkpt>
      <trkpt lat="42.35558" lon="-0.7244">
        <ele>960.494385</ele>
        <time>2013-06-02T09:21:02Z</time>
      </trkpt>
      <trkpt lat="42.35554" lon="-0.72437">
        <ele>960.494385</ele>
        <time>2013-06-02T09:21:16Z</time>
      </trkpt>
      <trkpt lat="42.35548" lon="-0.72425">
        <ele>962.416992</ele>
        <time>2013-06-02T09:21:35Z</time>
      </trkpt>
      <trkpt lat="42.3554" lon="-0.72414">
        <ele>965.301025</ele>
        <time>2013-06-02T09:21:52Z</time>
      </trkpt>
      <trkpt lat="42.35534" lon="-0.72409">
        <ele>967.704102</ele>
        <time>2013-06-02T09:22:05Z</time>
      </trkpt>
      <trkpt lat="42.35533" lon="-0.72404">
        <ele>968.184814</ele>
        <time>2013-06-02T09:22:17Z</time>
      </trkpt>
      <trkpt lat="42.35535" lon="-0.72404">
        <ele>969.626953</ele>
        <time>2013-06-02T09:22:21Z</time>
      </trkpt>
      <trkpt lat="42.35537" lon="-0.72399">
        <ele>972.030273</ele>
        <time>2013-06-02T09:22:35Z</time>
      </trkpt>
      <trkpt lat="42.35542" lon="-0.72394">
        <ele>975.394775</ele>
        <time>2013-06-02T09:22:50Z</time>
      </trkpt>
      <trkpt lat="42.35548" lon="-0.72391">
        <ele>977.317627</ele>
        <time>2013-06-02T09:23:06Z</time>
      </trkpt>
      <trkpt lat="42.35552" lon="-0.72384">
        <ele>980.201416</ele>
        <time>2013-06-02T09:23:20Z</time>
      </trkpt>
      <trkpt lat="42.35556" lon="-0.72375">
        <ele>983.085205</ele>
        <time>2013-06-02T09:23:36Z</time>
      </trkpt>
      <trkpt lat="42.3556" lon="-0.72369">
        <ele>984.527344</ele>
        <time>2013-06-02T09:23:47Z</time>
      </trkpt>
      <trkpt lat="42.35563" lon="-0.72357">
        <ele>985.969238</ele>
        <time>2013-06-02T09:24:01Z</time>
      </trkpt>
      <trkpt lat="42.3557" lon="-0.72345">
        <ele>988.853516</ele>
        <time>2013-06-02T09:24:18Z</time>
      </trkpt>
      <trkpt lat="42.35574" lon="-0.72327">
        <ele>991.737305</ele>
        <time>2013-06-02T09:24:36Z</time>
      </trkpt>
      <trkpt lat="42.35574" lon="-0.72324">
        <ele>994.621094</ele>
        <time>2013-06-02T09:24:41Z</time>
      </trkpt>
      <trkpt lat="42.35575" lon="-0.7232">
        <ele>996.063232</ele>
        <time>2013-06-02T09:24:48Z</time>
      </trkpt>
      <trkpt lat="42.35572" lon="-0.7231">
        <ele>997.024414</ele>
        <time>2013-06-02T09:25:04Z</time>
      </trkpt>
      <trkpt lat="42.35571" lon="-0.72306">
        <ele>999.908447</ele>
        <time>2013-06-02T09:25:17Z</time>
      </trkpt>
      <trkpt lat="42.35561" lon="-0.72303">
        <ele>1001.350342</ele>
        <time>2013-06-02T09:25:33Z</time>
      </trkpt>
      <trkpt lat="42.35557" lon="-0.72297">
        <ele>1004.715088</ele>
        <time>2013-06-02T09:25:46Z</time>
      </trkpt>
      <trkpt lat="42.35549" lon="-0.72288">
        <ele>1007.118408</ele>
        <time>2013-06-02T09:26:02Z</time>
      </trkpt>
      <trkpt lat="42.35549" lon="-0.72278">
        <ele>1009.041016</ele>
        <time>2013-06-02T09:26:15Z</time>
      </trkpt>
      <trkpt lat="42.35547" lon="-0.72265">
        <ele>1010.963623</ele>
        <time>2013-06-02T09:26:30Z</time>
      </trkpt>
      <trkpt lat="42.35539" lon="-0.72254">
        <ele>1014.328125</ele>
        <time>2013-06-02T09:26:44Z</time>
      </trkpt>
      <trkpt lat="42.3553" lon="-0.72241">
        <ele>1017.692627</ele>
        <time>2013-06-02T09:27:00Z</time>
      </trkpt>
      <trkpt lat="42.35524" lon="-0.7224">
        <ele>1020.576904</ele>
        <time>2013-06-02T09:27:12Z</time>
      </trkpt>
      <trkpt lat="42.35515" lon="-0.72237">
        <ele>1023.460938</ele>
        <time>2013-06-02T09:27:28Z</time>
      </trkpt>
      <trkpt lat="42.35507" lon="-0.7224">
        <ele>1022.980225</ele>
        <time>2013-06-02T09:27:52Z</time>
      </trkpt>
      <trkpt lat="42.35503" lon="-0.72245">
        <ele>1023.460938</ele>
        <time>2013-06-02T09:28:13Z</time>
      </trkpt>
      <trkpt lat="42.35504" lon="-0.72244">
        <ele>1023.460938</ele>
        <time>2013-06-02T09:29:13Z</time>
      </trkpt>
      <trkpt lat="42.35498" lon="-0.72249">
        <ele>1023.941406</ele>
        <time>2013-06-02T09:29:25Z</time>
      </trkpt>
      <trkpt lat="42.35488" lon="-0.72263">
        <ele>1026.825439</ele>
        <time>2013-06-02T09:29:39Z</time>
      </trkpt>
      <trkpt lat="42.35487" lon="-0.72268">
        <ele>1027.786621</ele>
        <time>2013-06-02T09:29:44Z</time>
      </trkpt>
      <trkpt lat="42.35486" lon="-0.7228">
        <ele>1029.228516</ele>
        <time>2013-06-02T09:29:56Z</time>
      </trkpt>
      <trkpt lat="42.35483" lon="-0.72289">
        <ele>1033.07373</ele>
        <time>2013-06-02T09:30:07Z</time>
      </trkpt>
      <trkpt lat="42.3548" lon="-0.72299">
        <ele>1036.438721</ele>
        <time>2013-06-02T09:30:19Z</time>
      </trkpt>
      <trkpt lat="42.35478" lon="-0.723">
        <ele>1039.32251</ele>
        <time>2013-06-02T09:30:23Z</time>
      </trkpt>
      <trkpt lat="42.35477" lon="-0.723">
        <ele>1036.438721</ele>
        <time>2013-06-02T09:30:25Z</time>
      </trkpt>
      <trkpt lat="42.35477" lon="-0.723">
        <ele>1037.880615</ele>
        <time>2013-06-02T09:30:27Z</time>
      </trkpt>
      <trkpt lat="42.35474" lon="-0.72297">
        <ele>1037.880615</ele>
        <time>2013-06-02T09:30:44Z</time>
      </trkpt>
      <trkpt lat="42.35479" lon="-0.723">
        <ele>1036.919189</ele>
        <time>2013-06-02T09:31:17Z</time>
      </trkpt>
      <trkpt lat="42.35479" lon="-0.72299">
        <ele>1040.283936</ele>
        <time>2013-06-02T09:31:29Z</time>
      </trkpt>
      <trkpt lat="42.35478" lon="-0.72299">
        <ele>1037.880615</ele>
        <time>2013-06-02T09:31:33Z</time>
      </trkpt>
      <trkpt lat="42.35476" lon="-0.72298">
        <ele>1034.996582</ele>
        <time>2013-06-02T09:31:41Z</time>
      </trkpt>
      <trkpt lat="42.3548" lon="-0.72299">
        <ele>1035.477051</ele>
        <time>2013-06-02T09:31:59Z</time>
      </trkpt>
      <trkpt lat="42.3548" lon="-0.72299">
        <ele>1038.842041</ele>
        <time>2013-06-02T09:32:03Z</time>
      </trkpt>
      <trkpt lat="42.3548" lon="-0.72299">
        <ele>1037.880615</ele>
        <time>2013-06-02T09:32:04Z</time>
      </trkpt>
      <trkpt lat="42.35479" lon="-0.72299">
        <ele>1036.919189</ele>
        <time>2013-06-02T09:32:46Z</time>
      </trkpt>
      <trkpt lat="42.35481" lon="-0.72299">
        <ele>1037.399902</ele>
        <time>2013-06-02T09:33:17Z</time>
      </trkpt>
      <trkpt lat="42.35483" lon="-0.72292">
        <ele>1034.035156</ele>
        <time>2013-06-02T09:33:38Z</time>
      </trkpt>
      <trkpt lat="42.35484" lon="-0.72285">
        <ele>1032.112549</ele>
        <time>2013-06-02T09:33:48Z</time>
      </trkpt>
      <trkpt lat="42.35483" lon="-0.72279">
        <ele>1030.670654</ele>
        <time>2013-06-02T09:33:57Z</time>
      </trkpt>
      <trkpt lat="42.35489" lon="-0.72271">
        <ele>1029.228516</ele>
        <time>2013-06-02T09:34:15Z</time>
      </trkpt>
      <trkpt lat="42.35483" lon="-0.72254">
        <ele>1028.267334</ele>
        <time>2013-06-02T09:34:34Z</time>
      </trkpt>
      <trkpt lat="42.35477" lon="-0.72235">
        <ele>1027.306152</ele>
        <time>2013-06-02T09:34:57Z</time>
      </trkpt>
      <trkpt lat="42.3547" lon="-0.72219">
        <ele>1023.941406</ele>
        <time>2013-06-02T09:35:18Z</time>
      </trkpt>
      <trkpt lat="42.3547" lon="-0.72218">
        <ele>1023.941406</ele>
        <time>2013-06-02T09:35:19Z</time>
      </trkpt>
      <trkpt lat="42.35461" lon="-0.722">
        <ele>1021.538086</ele>
        <time>2013-06-02T09:35:41Z</time>
      </trkpt>
      <trkpt lat="42.35454" lon="-0.72198">
        <ele>1022.499512</ele>
        <time>2013-06-02T09:36:23Z</time>
      </trkpt>
      <trkpt lat="42.3545" lon="-0.72193">
        <ele>1020.096191</ele>
        <time>2013-06-02T09:36:46Z</time>
      </trkpt>
      <trkpt lat="42.3544" lon="-0.72185">
        <ele>1016.731445</ele>
        <time>2013-06-02T09:37:03Z</time>
      </trkpt>
      <trkpt lat="42.35438" lon="-0.72176">
        <ele>1015.289551</ele>
        <time>2013-06-02T09:37:20Z</time>
      </trkpt>
      <trkpt lat="42.35429" lon="-0.72172">
        <ele>1011.925049</ele>
        <time>2013-06-02T09:37:37Z</time>
      </trkpt>
      <trkpt lat="42.35427" lon="-0.72171">
        <ele>1010.963623</ele>
        <time>2013-06-02T09:37:41Z</time>
      </trkpt>
      <trkpt lat="42.35426" lon="-0.72156">
        <ele>1008.079834</ele>
        <time>2013-06-02T09:37:58Z</time>
      </trkpt>
      <trkpt lat="42.35424" lon="-0.72147">
        <ele>1006.156982</ele>
        <time>2013-06-02T09:38:07Z</time>
      </trkpt>
      <trkpt lat="42.35416" lon="-0.72133">
        <ele>1004.715088</ele>
        <time>2013-06-02T09:38:24Z</time>
      </trkpt>
      <trkpt lat="42.35412" lon="-0.7213">
        <ele>1004.234619</ele>
        <time>2013-06-02T09:38:30Z</time>
      </trkpt>
      <trkpt lat="42.3541" lon="-0.72131">
        <ele>1004.234619</ele>
        <time>2013-06-02T09:38:46Z</time>
      </trkpt>
      <trkpt lat="42.35414" lon="-0.72133">
        <ele>1003.753662</ele>
        <time>2013-06-02T09:38:59Z</time>
      </trkpt>
      <trkpt lat="42.35409" lon="-0.72142">
        <ele>1002.792236</ele>
        <time>2013-06-02T09:39:15Z</time>
      </trkpt>
      <trkpt lat="42.35411" lon="-0.72148">
        <ele>999.908447</ele>
        <time>2013-06-02T09:39:34Z</time>
      </trkpt>
      <trkpt lat="42.35408" lon="-0.72155">
        <ele>997.98584</ele>
        <time>2013-06-02T09:39:49Z</time>
      </trkpt>
      <trkpt lat="42.35402" lon="-0.72161">
        <ele>996.543945</ele>
        <time>2013-06-02T09:40:04Z</time>
      </trkpt>
      <trkpt lat="42.354" lon="-0.72172">
        <ele>994.621094</ele>
        <time>2013-06-02T09:40:21Z</time>
      </trkpt>
      <trkpt lat="42.35393" lon="-0.72173">
        <ele>992.69873</ele>
        <time>2013-06-02T09:40:36Z</time>
      </trkpt>
      <trkpt lat="42.35394" lon="-0.72174">
        <ele>992.69873</ele>
        <time>2013-06-02T09:40:57Z</time>
      </trkpt>
      <trkpt lat="42.35397" lon="-0.72177">
        <ele>993.659912</ele>
        <time>2013-06-02T09:41:12Z</time>
      </trkpt>
      <trkpt lat="42.35397" lon="-0.72178">
        <ele>993.179199</ele>
        <time>2013-06-02T09:41:35Z</time>
      </trkpt>
      <trkpt lat="42.35398" lon="-0.72179">
        <ele>992.69873</ele>
        <time>2013-06-02T09:42:08Z</time>
      </trkpt>
      <trkpt lat="42.35397" lon="-0.72173">
        <ele>993.179199</ele>
        <time>2013-06-02T09:42:46Z</time>
      </trkpt>
      <trkpt lat="42.35397" lon="-0.72175">
        <ele>992.218018</ele>
        <time>2013-06-02T09:43:03Z</time>
      </trkpt>
      <trkpt lat="42.35397" lon="-0.72177">
        <ele>992.69873</ele>
        <time>2013-06-02T09:44:38Z</time>
      </trkpt>
      <trkpt lat="42.35398" lon="-0.72179">
        <ele>991.737305</ele>
        <time>2013-06-02T09:45:20Z</time>
      </trkpt>
      <trkpt lat="42.35396" lon="-0.7217">
        <ele>993.659912</ele>
        <time>2013-06-02T09:46:39Z</time>
      </trkpt>
      <trkpt lat="42.35399" lon="-0.7218">
        <ele>993.659912</ele>
        <time>2013-06-02T09:47:39Z</time>
      </trkpt>
      <trkpt lat="42.35397" lon="-0.72176">
        <ele>992.69873</ele>
        <time>2013-06-02T09:49:00Z</time>
      </trkpt>
      <trkpt lat="42.35394" lon="-0.72175">
        <ele>992.69873</ele>
        <time>2013-06-02T09:49:29Z</time>
      </trkpt>
      <trkpt lat="42.35396" lon="-0.72177">
        <ele>993.659912</ele>
        <time>2013-06-02T09:50:04Z</time>
      </trkpt>
      <trkpt lat="42.354" lon="-0.72176">
        <ele>993.659912</ele>
        <time>2013-06-02T09:50:19Z</time>
      </trkpt>
      <trkpt lat="42.35397" lon="-0.72178">
        <ele>993.659912</ele>
        <time>2013-06-02T09:50:39Z</time>
      </trkpt>
      <trkpt lat="42.35396" lon="-0.72172">
        <ele>994.140625</ele>
        <time>2013-06-02T09:50:56Z</time>
      </trkpt>
      <trkpt lat="42.35395" lon="-0.72175">
        <ele>994.140625</ele>
        <time>2013-06-02T09:51:14Z</time>
      </trkpt>
      <trkpt lat="42.35397" lon="-0.72179">
        <ele>994.140625</ele>
        <time>2013-06-02T09:51:39Z</time>
      </trkpt>
      <trkpt lat="42.35396" lon="-0.72176">
        <ele>994.140625</ele>
        <time>2013-06-02T09:52:10Z</time>
      </trkpt>
      <trkpt lat="42.35398" lon="-0.72182">
        <ele>993.659912</ele>
        <time>2013-06-02T09:52:34Z</time>
      </trkpt>
      <trkpt lat="42.35395" lon="-0.72173">
        <ele>994.140625</ele>
        <time>2013-06-02T09:52:57Z</time>
      </trkpt>
      <trkpt lat="42.35396" lon="-0.72176">
        <ele>994.621094</ele>
        <time>2013-06-02T09:53:50Z</time>
      </trkpt>
      <trkpt lat="42.35397" lon="-0.72176">
        <ele>994.621094</ele>
        <time>2013-06-02T09:54:13Z</time>
      </trkpt>
      <trkpt lat="42.35394" lon="-0.72169">
        <ele>995.58252</ele>
        <time>2013-06-02T09:54:35Z</time>
      </trkpt>
      <trkpt lat="42.35396" lon="-0.72176">
        <ele>994.621094</ele>
        <time>2013-06-02T09:55:38Z</time>
      </trkpt>
      <trkpt lat="42.35394" lon="-0.72171">
        <ele>994.621094</ele>
        <time>2013-06-02T09:56:16Z</time>
      </trkpt>
      <trkpt lat="42.35396" lon="-0.72172">
        <ele>994.621094</ele>
        <time>2013-06-02T09:57:22Z</time>
      </trkpt>
      <trkpt lat="42.35392" lon="-0.72164">
        <ele>995.101807</ele>
        <time>2013-06-02T09:57:47Z</time>
      </trkpt>
      <trkpt lat="42.35397" lon="-0.72175">
        <ele>994.621094</ele>
        <time>2013-06-02T09:58:30Z</time>
      </trkpt>
      <trkpt lat="42.35398" lon="-0.72176">
        <ele>995.101807</ele>
        <time>2013-06-02T09:59:06Z</time>
      </trkpt>
      <trkpt lat="42.35394" lon="-0.7217">
        <ele>995.101807</ele>
        <time>2013-06-02T09:59:29Z</time>
      </trkpt>
      <trkpt lat="42.35396" lon="-0.72171">
        <ele>995.101807</ele>
        <time>2013-06-02T09:59:47Z</time>
      </trkpt>
      <trkpt lat="42.35399" lon="-0.72172">
        <ele>994.621094</ele>
        <time>2013-06-02T10:00:06Z</time>
      </trkpt>
      <trkpt lat="42.35399" lon="-0.72174">
        <ele>994.621094</ele>
        <time>2013-06-02T10:00:38Z</time>
      </trkpt>
      <trkpt lat="42.35399" lon="-0.72174">
        <ele>994.621094</ele>
        <time>2013-06-02T10:01:09Z</time>
      </trkpt>
      <trkpt lat="42.35399" lon="-0.72173">
        <ele>993.659912</ele>
        <time>2013-06-02T10:01:37Z</time>
      </trkpt>
      <trkpt lat="42.354" lon="-0.72173">
        <ele>993.659912</ele>
        <time>2013-06-02T10:02:11Z</time>
      </trkpt>
      <trkpt lat="42.35399" lon="-0.72174">
        <ele>993.179199</ele>
        <time>2013-06-02T10:02:49Z</time>
      </trkpt>
      <trkpt lat="42.35398" lon="-0.72178">
        <ele>993.659912</ele>
        <time>2013-06-02T10:03:59Z</time>
      </trkpt>
      <trkpt lat="42.35402" lon="-0.72184">
        <ele>992.69873</ele>
        <time>2013-06-02T10:05:07Z</time>
      </trkpt>
      <trkpt lat="42.35398" lon="-0.72176">
        <ele>992.69873</ele>
        <time>2013-06-02T10:05:32Z</time>
      </trkpt>
      <trkpt lat="42.35396" lon="-0.72175">
        <ele>993.179199</ele>
        <time>2013-06-02T10:06:15Z</time>
      </trkpt>
      <trkpt lat="42.35399" lon="-0.72178">
        <ele>993.659912</ele>
        <time>2013-06-02T10:06:53Z</time>
      </trkpt>
      <trkpt lat="42.35399" lon="-0.72176">
        <ele>993.179199</ele>
        <time>2013-06-02T10:07:30Z</time>
      </trkpt>
      <trkpt lat="42.35398" lon="-0.72177">
        <ele>994.140625</ele>
        <time>2013-06-02T10:08:38Z</time>
      </trkpt>
      <trkpt lat="42.35398" lon="-0.72175">
        <ele>994.140625</ele>
        <time>2013-06-02T10:09:08Z</time>
      </trkpt>
      <trkpt lat="42.35398" lon="-0.72177">
        <ele>993.659912</ele>
        <time>2013-06-02T10:09:29Z</time>
      </trkpt>
      <trkpt lat="42.35398" lon="-0.72177">
        <ele>993.659912</ele>
        <time>2013-06-02T10:10:04Z</time>
      </trkpt>
      <trkpt lat="42.35398" lon="-0.72173">
        <ele>993.179199</ele>
        <time>2013-06-02T10:10:59Z</time>
      </trkpt>
      <trkpt lat="42.35395" lon="-0.72171">
        <ele>993.659912</ele>
        <time>2013-06-02T10:12:40Z</time>
      </trkpt>
      <trkpt lat="42.35395" lon="-0.7217">
        <ele>993.659912</ele>
        <time>2013-06-02T10:13:09Z</time>
      </trkpt>
      <trkpt lat="42.354" lon="-0.72174">
        <ele>993.179199</ele>
        <time>2013-06-02T10:13:35Z</time>
      </trkpt>
      <trkpt lat="42.354" lon="-0.72168">
        <ele>992.218018</ele>
        <time>2013-06-02T10:14:05Z</time>
      </trkpt>
      <trkpt lat="42.354" lon="-0.72173">
        <ele>992.69873</ele>
        <time>2013-06-02T10:15:49Z</time>
      </trkpt>
      <trkpt lat="42.35399" lon="-0.72172">
        <ele>992.218018</ele>
        <time>2013-06-02T10:16:16Z</time>
      </trkpt>
      <trkpt lat="42.35397" lon="-0.72176">
        <ele>991.737305</ele>
        <time>2013-06-02T10:16:34Z</time>
      </trkpt>
      <trkpt lat="42.35395" lon="-0.72171">
        <ele>992.218018</ele>
        <time>2013-06-02T10:17:04Z</time>
      </trkpt>
      <trkpt lat="42.35397" lon="-0.72174">
        <ele>993.659912</ele>
        <time>2013-06-02T10:17:15Z</time>
      </trkpt>
      <trkpt lat="42.35398" lon="-0.72171">
        <ele>991.737305</ele>
        <time>2013-06-02T10:18:44Z</time>
      </trkpt>
      <trkpt lat="42.35399" lon="-0.72175">
        <ele>992.69873</ele>
        <time>2013-06-02T10:19:35Z</time>
      </trkpt>
      <trkpt lat="42.35398" lon="-0.72176">
        <ele>991.256592</ele>
        <time>2013-06-02T10:22:13Z</time>
      </trkpt>
      <trkpt lat="42.35398" lon="-0.72174">
        <ele>990.775879</ele>
        <time>2013-06-02T10:22:53Z</time>
      </trkpt>
      <trkpt lat="42.35398" lon="-0.72176">
        <ele>990.775879</ele>
        <time>2013-06-02T10:23:25Z</time>
      </trkpt>
      <trkpt lat="42.35395" lon="-0.72172">
        <ele>991.256592</ele>
        <time>2013-06-02T10:25:40Z</time>
      </trkpt>
      <trkpt lat="42.35395" lon="-0.72171">
        <ele>991.737305</ele>
        <time>2013-06-02T10:26:45Z</time>
      </trkpt>
      <trkpt lat="42.35414" lon="-0.7219">
        <ele>990.775879</ele>
        <time>2013-06-02T10:27:16Z</time>
      </trkpt>
      <trkpt lat="42.35403" lon="-0.72179">
        <ele>990.29541</ele>
        <time>2013-06-02T10:27:39Z</time>
      </trkpt>
      <trkpt lat="42.35398" lon="-0.72177">
        <ele>989.814697</ele>
        <time>2013-06-02T10:29:19Z</time>
      </trkpt>
      <trkpt lat="42.35399" lon="-0.72175">
        <ele>993.179199</ele>
        <time>2013-06-02T10:29:45Z</time>
      </trkpt>
      <trkpt lat="42.35401" lon="-0.72174">
        <ele>991.737305</ele>
        <time>2013-06-02T10:30:10Z</time>
      </trkpt>
      <trkpt lat="42.35401" lon="-0.72176">
        <ele>991.737305</ele>
        <time>2013-06-02T10:30:26Z</time>
      </trkpt>
      <trkpt lat="42.354" lon="-0.72173">
        <ele>990.775879</ele>
        <time>2013-06-02T10:31:05Z</time>
      </trkpt>
      <trkpt lat="42.35393" lon="-0.72172">
        <ele>990.29541</ele>
        <time>2013-06-02T10:31:20Z</time>
      </trkpt>
      <trkpt lat="42.35388" lon="-0.72177">
        <ele>989.814697</ele>
        <time>2013-06-02T10:31:37Z</time>
      </trkpt>
      <trkpt lat="42.35388" lon="-0.72182">
        <ele>987.411133</ele>
        <time>2013-06-02T10:31:49Z</time>
      </trkpt>
      <trkpt lat="42.35382" lon="-0.72188">
        <ele>985.008057</ele>
        <time>2013-06-02T10:32:05Z</time>
      </trkpt>
      <trkpt lat="42.35375" lon="-0.72196">
        <ele>981.162842</ele>
        <time>2013-06-02T10:32:23Z</time>
      </trkpt>
      <trkpt lat="42.35367" lon="-0.72206">
        <ele>979.23999</ele>
        <time>2013-06-02T10:32:39Z</time>
      </trkpt>
      <trkpt lat="42.35359" lon="-0.72208">
        <ele>978.759521</ele>
        <time>2013-06-02T10:32:53Z</time>
      </trkpt>
      <trkpt lat="42.35357" lon="-0.72203">
        <ele>976.836914</ele>
        <time>2013-06-02T10:33:14Z</time>
      </trkpt>
      <trkpt lat="42.35359" lon="-0.72192">
        <ele>973.952881</ele>
        <time>2013-06-02T10:33:28Z</time>
      </trkpt>
      <trkpt lat="42.35361" lon="-0.72179">
        <ele>970.588135</ele>
        <time>2013-06-02T10:33:43Z</time>
      </trkpt>
      <trkpt lat="42.3536" lon="-0.72163">
        <ele>968.665527</ele>
        <time>2013-06-02T10:33:59Z</time>
      </trkpt>
      <trkpt lat="42.35354" lon="-0.72152">
        <ele>967.223633</ele>
        <time>2013-06-02T10:34:17Z</time>
      </trkpt>
      <trkpt lat="42.35348" lon="-0.72155">
        <ele>964.3396</ele>
        <time>2013-06-02T10:34:33Z</time>
      </trkpt>
      <trkpt lat="42.35344" lon="-0.72146">
        <ele>962.897705</ele>
        <time>2013-06-02T10:34:47Z</time>
      </trkpt>
      <trkpt lat="42.35341" lon="-0.72131">
        <ele>961.455811</ele>
        <time>2013-06-02T10:35:03Z</time>
      </trkpt>
      <trkpt lat="42.35335" lon="-0.72122">
        <ele>959.533203</ele>
        <time>2013-06-02T10:35:18Z</time>
      </trkpt>
      <trkpt lat="42.35331" lon="-0.72115">
        <ele>958.091309</ele>
        <time>2013-06-02T10:35:27Z</time>
      </trkpt>
      <trkpt lat="42.35325" lon="-0.72094">
        <ele>954.726318</ele>
        <time>2013-06-02T10:35:46Z</time>
      </trkpt>
      <trkpt lat="42.35322" lon="-0.72088">
        <ele>954.726318</ele>
        <time>2013-06-02T10:36:01Z</time>
      </trkpt>
      <trkpt lat="42.3532" lon="-0.7208">
        <ele>953.765137</ele>
        <time>2013-06-02T10:36:17Z</time>
      </trkpt>
      <trkpt lat="42.35316" lon="-0.72072">
        <ele>951.361816</ele>
        <time>2013-06-02T10:36:28Z</time>
      </trkpt>
      <trkpt lat="42.35314" lon="-0.72065">
        <ele>947.997314</ele>
        <time>2013-06-02T10:36:36Z</time>
      </trkpt>
      <trkpt lat="42.35309" lon="-0.72053">
        <ele>947.035889</ele>
        <time>2013-06-02T10:36:51Z</time>
      </trkpt>
      <trkpt lat="42.35304" lon="-0.72036">
        <ele>947.516602</ele>
        <time>2013-06-02T10:37:06Z</time>
      </trkpt>
      <trkpt lat="42.35289" lon="-0.72026">
        <ele>946.074707</ele>
        <time>2013-06-02T10:37:23Z</time>
      </trkpt>
      <trkpt lat="42.3528" lon="-0.72023">
        <ele>944.1521</ele>
        <time>2013-06-02T10:37:40Z</time>
      </trkpt>
      <trkpt lat="42.35273" lon="-0.72017">
        <ele>943.190674</ele>
        <time>2013-06-02T10:37:50Z</time>
      </trkpt>
      <trkpt lat="42.35258" lon="-0.71998">
        <ele>943.190674</ele>
        <time>2013-06-02T10:38:10Z</time>
      </trkpt>
      <trkpt lat="42.35245" lon="-0.71983">
        <ele>941.748779</ele>
        <time>2013-06-02T10:38:30Z</time>
      </trkpt>
      <trkpt lat="42.35235" lon="-0.71977">
        <ele>938.864746</ele>
        <time>2013-06-02T10:39:09Z</time>
      </trkpt>
      <trkpt lat="42.3523" lon="-0.71975">
        <ele>937.422607</ele>
        <time>2013-06-02T10:39:27Z</time>
      </trkpt>
      <trkpt lat="42.35224" lon="-0.71973">
        <ele>937.90332</ele>
        <time>2013-06-02T10:39:43Z</time>
      </trkpt>
      <trkpt lat="42.35213" lon="-0.71969">
        <ele>938.384033</ele>
        <time>2013-06-02T10:39:59Z</time>
      </trkpt>
      <trkpt lat="42.3521" lon="-0.71965">
        <ele>937.90332</ele>
        <time>2013-06-02T10:40:14Z</time>
      </trkpt>
      <trkpt lat="42.35192" lon="-0.71952">
        <ele>937.90332</ele>
        <time>2013-06-02T10:40:33Z</time>
      </trkpt>
      <trkpt lat="42.3518" lon="-0.71938">
        <ele>935.5</ele>
        <time>2013-06-02T10:40:51Z</time>
      </trkpt>
      <trkpt lat="42.35168" lon="-0.71925">
        <ele>935.980713</ele>
        <time>2013-06-02T10:41:10Z</time>
      </trkpt>
      <trkpt lat="42.35157" lon="-0.71916">
        <ele>935.019531</ele>
        <time>2013-06-02T10:41:35Z</time>
      </trkpt>
      <trkpt lat="42.35139" lon="-0.71921">
        <ele>933.09668</ele>
        <time>2013-06-02T10:41:57Z</time>
      </trkpt>
      <trkpt lat="42.35136" lon="-0.7192">
        <ele>931.174316</ele>
        <time>2013-06-02T10:42:17Z</time>
      </trkpt>
      <trkpt lat="42.35127" lon="-0.71917">
        <ele>929.732178</ele>
        <time>2013-06-02T10:42:26Z</time>
      </trkpt>
      <trkpt lat="42.35107" lon="-0.71912">
        <ele>928.770996</ele>
        <time>2013-06-02T10:42:45Z</time>
      </trkpt>
      <trkpt lat="42.35101" lon="-0.71908">
        <ele>927.80957</ele>
        <time>2013-06-02T10:43:02Z</time>
      </trkpt>
      <trkpt lat="42.3509" lon="-0.71899">
        <ele>928.290283</ele>
        <time>2013-06-02T10:43:27Z</time>
      </trkpt>
      <trkpt lat="42.35089" lon="-0.71898">
        <ele>928.770996</ele>
        <time>2013-06-02T10:43:39Z</time>
      </trkpt>
      <trkpt lat="42.35086" lon="-0.71898">
        <ele>927.329102</ele>
        <time>2013-06-02T10:44:01Z</time>
      </trkpt>
      <trkpt lat="42.35084" lon="-0.71899">
        <ele>927.80957</ele>
        <time>2013-06-02T10:44:09Z</time>
      </trkpt>
      <trkpt lat="42.35067" lon="-0.71899">
        <ele>926.848389</ele>
        <time>2013-06-02T10:44:28Z</time>
      </trkpt>
      <trkpt lat="42.35064" lon="-0.71908">
        <ele>925.886963</ele>
        <time>2013-06-02T10:44:44Z</time>
      </trkpt>
      <trkpt lat="42.35064" lon="-0.71907">
        <ele>924.445068</ele>
        <time>2013-06-02T10:45:07Z</time>
      </trkpt>
      <trkpt lat="42.35064" lon="-0.71905">
        <ele>924.445068</ele>
        <time>2013-06-02T10:48:54Z</time>
      </trkpt>
      <trkpt lat="42.35065" lon="-0.71906">
        <ele>923.964111</ele>
        <time>2013-06-02T10:49:43Z</time>
      </trkpt>
      <trkpt lat="42.35065" lon="-0.71903">
        <ele>923.964111</ele>
        <time>2013-06-02T10:50:04Z</time>
      </trkpt>
      <trkpt lat="42.35064" lon="-0.71899">
        <ele>924.925781</ele>
        <time>2013-06-02T10:50:12Z</time>
      </trkpt>
      <trkpt lat="42.35059" lon="-0.71891">
        <ele>925.40625</ele>
        <time>2013-06-02T10:50:33Z</time>
      </trkpt>
      <trkpt lat="42.35053" lon="-0.7189">
        <ele>925.40625</ele>
        <time>2013-06-02T10:50:51Z</time>
      </trkpt>
      <trkpt lat="42.35049" lon="-0.71892">
        <ele>924.445068</ele>
        <time>2013-06-02T10:51:09Z</time>
      </trkpt>
      <trkpt lat="42.35032" lon="-0.71899">
        <ele>922.041504</ele>
        <time>2013-06-02T10:51:26Z</time>
      </trkpt>
      <trkpt lat="42.35015" lon="-0.71902">
        <ele>923.00293</ele>
        <time>2013-06-02T10:51:44Z</time>
      </trkpt>
      <trkpt lat="42.35" lon="-0.71903">
        <ele>923.483643</ele>
        <time>2013-06-02T10:52:00Z</time>
      </trkpt>
      <trkpt lat="42.34986" lon="-0.71903">
        <ele>925.886963</ele>
        <time>2013-06-02T10:52:13Z</time>
      </trkpt>
      <trkpt lat="42.34973" lon="-0.71902">
        <ele>923.964111</ele>
        <time>2013-06-02T10:52:32Z</time>
      </trkpt>
      <trkpt lat="42.34972" lon="-0.71901">
        <ele>923.964111</ele>
        <time>2013-06-02T10:52:55Z</time>
      </trkpt>
      <trkpt lat="42.34966" lon="-0.71897">
        <ele>923.483643</ele>
        <time>2013-06-02T10:53:25Z</time>
      </trkpt>
      <trkpt lat="42.34969" lon="-0.71909">
        <ele>921.080322</ele>
        <time>2013-06-02T10:53:42Z</time>
      </trkpt>
      <trkpt lat="42.34967" lon="-0.71915">
        <ele>921.080322</ele>
        <time>2013-06-02T10:54:07Z</time>
      </trkpt>
      <trkpt lat="42.34957" lon="-0.71909">
        <ele>920.118896</ele>
        <time>2013-06-02T10:54:25Z</time>
      </trkpt>
      <trkpt lat="42.34951" lon="-0.71907">
        <ele>917.235107</ele>
        <time>2013-06-02T10:54:35Z</time>
      </trkpt>
      <trkpt lat="42.34949" lon="-0.71904">
        <ele>915.793213</ele>
        <time>2013-06-02T10:54:40Z</time>
      </trkpt>
      <trkpt lat="42.34942" lon="-0.71892">
        <ele>914.351074</ele>
        <time>2013-06-02T10:54:55Z</time>
      </trkpt>
      <trkpt lat="42.34929" lon="-0.7188">
        <ele>912.428467</ele>
        <time>2013-06-02T10:55:14Z</time>
      </trkpt>
      <trkpt lat="42.34927" lon="-0.71879">
        <ele>911.467285</ele>
        <time>2013-06-02T10:55:17Z</time>
      </trkpt>
      <trkpt lat="42.34917" lon="-0.71872">
        <ele>908.583252</ele>
        <time>2013-06-02T10:55:31Z</time>
      </trkpt>
      <trkpt lat="42.34908" lon="-0.71864">
        <ele>906.179688</ele>
        <time>2013-06-02T10:55:48Z</time>
      </trkpt>
      <trkpt lat="42.349" lon="-0.71853">
        <ele>902.815186</ele>
        <time>2013-06-02T10:56:04Z</time>
      </trkpt>
      <trkpt lat="42.34893" lon="-0.71842">
        <ele>902.334473</ele>
        <time>2013-06-02T10:56:21Z</time>
      </trkpt>
      <trkpt lat="42.34886" lon="-0.71833">
        <ele>898.969971</ele>
        <time>2013-06-02T10:56:36Z</time>
      </trkpt>
      <trkpt lat="42.34874" lon="-0.71822">
        <ele>896.566895</ele>
        <time>2013-06-02T10:56:56Z</time>
      </trkpt>
      <trkpt lat="42.34865" lon="-0.71823">
        <ele>894.163574</ele>
        <time>2013-06-02T10:57:12Z</time>
      </trkpt>
      <trkpt lat="42.34853" lon="-0.71823">
        <ele>891.76001</ele>
        <time>2013-06-02T10:57:30Z</time>
      </trkpt>
      <trkpt lat="42.34848" lon="-0.71821">
        <ele>889.356689</ele>
        <time>2013-06-02T10:57:46Z</time>
      </trkpt>
      <trkpt lat="42.3484" lon="-0.71818">
        <ele>889.356689</ele>
        <time>2013-06-02T10:58:05Z</time>
      </trkpt>
      <trkpt lat="42.34836" lon="-0.71816">
        <ele>888.876221</ele>
        <time>2013-06-02T10:58:24Z</time>
      </trkpt>
      <trkpt lat="42.3483" lon="-0.71815">
        <ele>887.434082</ele>
        <time>2013-06-02T10:58:53Z</time>
      </trkpt>
      <trkpt lat="42.34819" lon="-0.71818">
        <ele>885.992188</ele>
        <time>2013-06-02T10:59:11Z</time>
      </trkpt>
      <trkpt lat="42.34812" lon="-0.71824">
        <ele>882.627686</ele>
        <time>2013-06-02T10:59:26Z</time>
      </trkpt>
      <trkpt lat="42.34821" lon="-0.71831">
        <ele>881.185791</ele>
        <time>2013-06-02T10:59:45Z</time>
      </trkpt>
      <trkpt lat="42.34832" lon="-0.71841">
        <ele>878.301758</ele>
        <time>2013-06-02T11:00:02Z</time>
      </trkpt>
      <trkpt lat="42.34838" lon="-0.71851">
        <ele>878.301758</ele>
        <time>2013-06-02T11:00:22Z</time>
      </trkpt>
      <trkpt lat="42.34842" lon="-0.71863">
        <ele>876.859863</ele>
        <time>2013-06-02T11:00:39Z</time>
      </trkpt>
      <trkpt lat="42.34845" lon="-0.71874">
        <ele>874.937012</ele>
        <time>2013-06-02T11:00:55Z</time>
      </trkpt>
      <trkpt lat="42.34853" lon="-0.71888">
        <ele>873.014404</ele>
        <time>2013-06-02T11:01:13Z</time>
      </trkpt>
      <trkpt lat="42.34849" lon="-0.71895">
        <ele>871.572266</ele>
        <time>2013-06-02T11:01:29Z</time>
      </trkpt>
      <trkpt lat="42.34837" lon="-0.71891">
        <ele>868.688477</ele>
        <time>2013-06-02T11:01:47Z</time>
      </trkpt>
      <trkpt lat="42.34826" lon="-0.71886">
        <ele>866.285156</ele>
        <time>2013-06-02T11:02:05Z</time>
      </trkpt>
      <trkpt lat="42.34831" lon="-0.71898">
        <ele>863.881836</ele>
        <time>2013-06-02T11:02:22Z</time>
      </trkpt>
      <trkpt lat="42.34831" lon="-0.71915">
        <ele>860.998047</ele>
        <time>2013-06-02T11:02:42Z</time>
      </trkpt>
      <trkpt lat="42.34834" lon="-0.71931">
        <ele>858.594482</ele>
        <time>2013-06-02T11:03:01Z</time>
      </trkpt>
      <trkpt lat="42.34835" lon="-0.71936">
        <ele>858.114014</ele>
        <time>2013-06-02T11:03:17Z</time>
      </trkpt>
      <trkpt lat="42.34826" lon="-0.7194">
        <ele>855.22998</ele>
        <time>2013-06-02T11:03:33Z</time>
      </trkpt>
      <trkpt lat="42.3482" lon="-0.71944">
        <ele>855.22998</ele>
        <time>2013-06-02T11:03:47Z</time>
      </trkpt>
      <trkpt lat="42.3482" lon="-0.71944">
        <ele>854.749268</ele>
        <time>2013-06-02T11:04:45Z</time>
      </trkpt>
      <trkpt lat="42.34825" lon="-0.71954">
        <ele>852.82666</ele>
        <time>2013-06-02T11:05:07Z</time>
      </trkpt>
      <trkpt lat="42.34827" lon="-0.71966">
        <ele>850.904053</ele>
        <time>2013-06-02T11:05:27Z</time>
      </trkpt>
      <trkpt lat="42.34832" lon="-0.71974">
        <ele>849.462158</ele>
        <time>2013-06-02T11:05:42Z</time>
      </trkpt>
      <trkpt lat="42.34832" lon="-0.71978">
        <ele>847.539551</ele>
        <time>2013-06-02T11:05:56Z</time>
      </trkpt>
      <trkpt lat="42.34818" lon="-0.71979">
        <ele>846.097656</ele>
        <time>2013-06-02T11:06:16Z</time>
      </trkpt>
      <trkpt lat="42.34813" lon="-0.71981">
        <ele>843.694092</ele>
        <time>2013-06-02T11:06:27Z</time>
      </trkpt>
      <trkpt lat="42.34804" lon="-0.71981">
        <ele>842.73291</ele>
        <time>2013-06-02T11:06:52Z</time>
      </trkpt>
      <trkpt lat="42.34795" lon="-0.71984">
        <ele>839.368164</ele>
        <time>2013-06-02T11:07:06Z</time>
      </trkpt>
      <trkpt lat="42.34797" lon="-0.71988">
        <ele>839.368164</ele>
        <time>2013-06-02T11:07:29Z</time>
      </trkpt>
      <trkpt lat="42.34799" lon="-0.71993">
        <ele>838.406982</ele>
        <time>2013-06-02T11:07:58Z</time>
      </trkpt>
      <trkpt lat="42.3481" lon="-0.72001">
        <ele>836.484375</ele>
        <time>2013-06-02T11:08:17Z</time>
      </trkpt>
      <trkpt lat="42.34818" lon="-0.72006">
        <ele>834.561768</ele>
        <time>2013-06-02T11:08:32Z</time>
      </trkpt>
      <trkpt lat="42.34825" lon="-0.72016">
        <ele>832.63916</ele>
        <time>2013-06-02T11:08:50Z</time>
      </trkpt>
      <trkpt lat="42.34821" lon="-0.72025">
        <ele>830.716553</ele>
        <time>2013-06-02T11:09:05Z</time>
      </trkpt>
      <trkpt lat="42.34818" lon="-0.72023">
        <ele>830.716553</ele>
        <time>2013-06-02T11:09:08Z</time>
      </trkpt>
      <trkpt lat="42.34801" lon="-0.72025">
        <ele>827.832275</ele>
        <time>2013-06-02T11:09:30Z</time>
      </trkpt>
      <trkpt lat="42.34791" lon="-0.7203">
        <ele>827.832275</ele>
        <time>2013-06-02T11:09:47Z</time>
      </trkpt>
      <trkpt lat="42.34782" lon="-0.72034">
        <ele>825.428955</ele>
        <time>2013-06-02T11:10:04Z</time>
      </trkpt>
      <trkpt lat="42.34776" lon="-0.72034">
        <ele>822.064453</ele>
        <time>2013-06-02T11:10:16Z</time>
      </trkpt>
      <trkpt lat="42.34771" lon="-0.72032">
        <ele>821.103271</ele>
        <time>2013-06-02T11:10:56Z</time>
      </trkpt>
      <trkpt lat="42.34766" lon="-0.72032">
        <ele>820.141846</ele>
        <time>2013-06-02T11:11:11Z</time>
      </trkpt>
      <trkpt lat="42.34761" lon="-0.72036">
        <ele>818.219238</ele>
        <time>2013-06-02T11:11:28Z</time>
      </trkpt>
      <trkpt lat="42.34762" lon="-0.72036">
        <ele>818.219238</ele>
        <time>2013-06-02T11:11:54Z</time>
      </trkpt>
      <trkpt lat="42.34763" lon="-0.72037">
        <ele>818.219238</ele>
        <time>2013-06-02T11:12:15Z</time>
      </trkpt>
      <trkpt lat="42.34761" lon="-0.72037">
        <ele>818.219238</ele>
        <time>2013-06-02T11:12:47Z</time>
      </trkpt>
      <trkpt lat="42.34757" lon="-0.72035">
        <ele>817.738525</ele>
        <time>2013-06-02T11:13:06Z</time>
      </trkpt>
      <trkpt lat="42.34752" lon="-0.72038">
        <ele>814.374023</ele>
        <time>2013-06-02T11:13:19Z</time>
      </trkpt>
      <trkpt lat="42.34752" lon="-0.72039">
        <ele>814.374023</ele>
        <time>2013-06-02T11:13:20Z</time>
      </trkpt>
      <trkpt lat="42.34749" lon="-0.72047">
        <ele>812.932129</ele>
        <time>2013-06-02T11:13:38Z</time>
      </trkpt>
      <trkpt lat="42.3474" lon="-0.72036">
        <ele>812.451416</ele>
        <time>2013-06-02T11:13:57Z</time>
      </trkpt>
      <trkpt lat="42.34733" lon="-0.72019">
        <ele>809.08667</ele>
        <time>2013-06-02T11:14:16Z</time>
      </trkpt>
      <trkpt lat="42.34729" lon="-0.71998">
        <ele>807.164062</ele>
        <time>2013-06-02T11:14:36Z</time>
      </trkpt>
      <trkpt lat="42.34727" lon="-0.71987">
        <ele>806.202637</ele>
        <time>2013-06-02T11:14:47Z</time>
      </trkpt>
      <trkpt lat="42.34724" lon="-0.71977">
        <ele>804.280273</ele>
        <time>2013-06-02T11:15:00Z</time>
      </trkpt>
      <trkpt lat="42.3472" lon="-0.71968">
        <ele>801.876953</ele>
        <time>2013-06-02T11:15:16Z</time>
      </trkpt>
      <trkpt lat="42.34713" lon="-0.71963">
        <ele>799.954346</ele>
        <time>2013-06-02T11:15:31Z</time>
      </trkpt>
      <trkpt lat="42.34713" lon="-0.71975">
        <ele>797.070312</ele>
        <time>2013-06-02T11:15:46Z</time>
      </trkpt>
      <trkpt lat="42.34708" lon="-0.71996">
        <ele>795.147461</ele>
        <time>2013-06-02T11:16:06Z</time>
      </trkpt>
      <trkpt lat="42.34707" lon="-0.72009">
        <ele>793.224854</ele>
        <time>2013-06-02T11:16:22Z</time>
      </trkpt>
      <trkpt lat="42.34706" lon="-0.72012">
        <ele>792.744385</ele>
        <time>2013-06-02T11:16:27Z</time>
      </trkpt>
      <trkpt lat="42.34704" lon="-0.72023">
        <ele>789.379639</ele>
        <time>2013-06-02T11:16:42Z</time>
      </trkpt>
      <trkpt lat="42.34701" lon="-0.72034">
        <ele>788.89917</ele>
        <time>2013-06-02T11:16:57Z</time>
      </trkpt>
      <trkpt lat="42.34696" lon="-0.72048">
        <ele>787.457031</ele>
        <time>2013-06-02T11:17:16Z</time>
      </trkpt>
      <trkpt lat="42.34695" lon="-0.72055">
        <ele>786.015137</ele>
        <time>2013-06-02T11:17:23Z</time>
      </trkpt>
      <trkpt lat="42.34687" lon="-0.72073">
        <ele>783.611816</ele>
        <time>2013-06-02T11:17:44Z</time>
      </trkpt>
      <trkpt lat="42.34688" lon="-0.72075">
        <ele>783.611816</ele>
        <time>2013-06-02T11:17:46Z</time>
      </trkpt>
      <trkpt lat="42.34688" lon="-0.72084">
        <ele>782.650635</ele>
        <time>2013-06-02T11:18:05Z</time>
      </trkpt>
      <trkpt lat="42.34685" lon="-0.72089">
        <ele>783.131104</ele>
        <time>2013-06-02T11:18:30Z</time>
      </trkpt>
      <trkpt lat="42.34678" lon="-0.72082">
        <ele>779.766357</ele>
        <time>2013-06-02T11:18:46Z</time>
      </trkpt>
      <trkpt lat="42.34675" lon="-0.72069">
        <ele>776.401855</ele>
        <time>2013-06-02T11:19:01Z</time>
      </trkpt>
      <trkpt lat="42.34671" lon="-0.72056">
        <ele>773.998535</ele>
        <time>2013-06-02T11:19:16Z</time>
      </trkpt>
      <trkpt lat="42.34668" lon="-0.72042">
        <ele>770.634033</ele>
        <time>2013-06-02T11:19:30Z</time>
      </trkpt>
      <trkpt lat="42.34662" lon="-0.72029">
        <ele>770.15332</ele>
        <time>2013-06-02T11:19:46Z</time>
      </trkpt>
      <trkpt lat="42.34653" lon="-0.7204">
        <ele>768.230713</ele>
        <time>2013-06-02T11:20:00Z</time>
      </trkpt>
      <trkpt lat="42.34652" lon="-0.7204">
        <ele>767.75</ele>
        <time>2013-06-02T11:20:02Z</time>
      </trkpt>
      <trkpt lat="42.3465" lon="-0.7203">
        <ele>764.866211</ele>
        <time>2013-06-02T11:20:15Z</time>
      </trkpt>
      <trkpt lat="42.34645" lon="-0.7202">
        <ele>761.020752</ele>
        <time>2013-06-02T11:20:33Z</time>
      </trkpt>
      <trkpt lat="42.34645" lon="-0.7202">
        <ele>761.020752</ele>
        <time>2013-06-02T11:20:34Z</time>
      </trkpt>
      <trkpt lat="42.34636" lon="-0.72032">
        <ele>759.098145</ele>
        <time>2013-06-02T11:20:49Z</time>
      </trkpt>
      <trkpt lat="42.34624" lon="-0.72035">
        <ele>756.214111</ele>
        <time>2013-06-02T11:21:02Z</time>
      </trkpt>
      <trkpt lat="42.3462" lon="-0.72042">
        <ele>753.811035</ele>
        <time>2013-06-02T11:21:14Z</time>
      </trkpt>
      <trkpt lat="42.34614" lon="-0.72048">
        <ele>750.927002</ele>
        <time>2013-06-02T11:21:30Z</time>
      </trkpt>
      <trkpt lat="42.34609" lon="-0.72053">
        <ele>750.446533</ele>
        <time>2013-06-02T11:21:40Z</time>
      </trkpt>
      <trkpt lat="42.34598" lon="-0.72063">
        <ele>747.562256</ele>
        <time>2013-06-02T11:21:57Z</time>
      </trkpt>
      <trkpt lat="42.34594" lon="-0.72066">
        <ele>746.601074</ele>
        <time>2013-06-02T11:22:08Z</time>
      </trkpt>
      <trkpt lat="42.34592" lon="-0.72057">
        <ele>745.158936</ele>
        <time>2013-06-02T11:22:15Z</time>
      </trkpt>
      <trkpt lat="42.3459" lon="-0.72045">
        <ele>742.275146</ele>
        <time>2013-06-02T11:22:29Z</time>
      </trkpt>
      <trkpt lat="42.34588" lon="-0.72032">
        <ele>741.794434</ele>
        <time>2013-06-02T11:22:41Z</time>
      </trkpt>
      <trkpt lat="42.34583" lon="-0.7202">
        <ele>738.910645</ele>
        <time>2013-06-02T11:22:55Z</time>
      </trkpt>
      <trkpt lat="42.3457" lon="-0.72022">
        <ele>736.026611</ele>
        <time>2013-06-02T11:23:13Z</time>
      </trkpt>
      <trkpt lat="42.34556" lon="-0.72018">
        <ele>732.662109</ele>
        <time>2013-06-02T11:23:30Z</time>
      </trkpt>
      <trkpt lat="42.34555" lon="-0.72019">
        <ele>732.181396</ele>
        <time>2013-06-02T11:23:31Z</time>
      </trkpt>
      <trkpt lat="42.34549" lon="-0.72021">
        <ele>730.258545</ele>
        <time>2013-06-02T11:23:39Z</time>
      </trkpt>
      <trkpt lat="42.34534" lon="-0.72022">
        <ele>726.894043</ele>
        <time>2013-06-02T11:23:56Z</time>
      </trkpt>
      <trkpt lat="42.34523" lon="-0.72026">
        <ele>724.01001</ele>
        <time>2013-06-02T11:24:13Z</time>
      </trkpt>
      <trkpt lat="42.34516" lon="-0.72028">
        <ele>722.087402</ele>
        <time>2013-06-02T11:24:30Z</time>
      </trkpt>
      <trkpt lat="42.34508" lon="-0.7203">
        <ele>721.606689</ele>
        <time>2013-06-02T11:24:37Z</time>
      </trkpt>
      <trkpt lat="42.34497" lon="-0.72037">
        <ele>718.242188</ele>
        <time>2013-06-02T11:24:48Z</time>
      </trkpt>
      <trkpt lat="42.34483" lon="-0.72041">
        <ele>716.31958</ele>
        <time>2013-06-02T11:25:04Z</time>
      </trkpt>
      <trkpt lat="42.3447" lon="-0.72045">
        <ele>713.916016</ele>
        <time>2013-06-02T11:25:21Z</time>
      </trkpt>
      <trkpt lat="42.34454" lon="-0.72052">
        <ele>711.512939</ele>
        <time>2013-06-02T11:25:41Z</time>
      </trkpt>
      <trkpt lat="42.34442" lon="-0.72053">
        <ele>708.628906</ele>
        <time>2013-06-02T11:25:59Z</time>
      </trkpt>
      <trkpt lat="42.34439" lon="-0.72054">
        <ele>708.148438</ele>
        <time>2013-06-02T11:26:13Z</time>
      </trkpt>
      <trkpt lat="42.34442" lon="-0.72055">
        <ele>708.148438</ele>
        <time>2013-06-02T11:26:24Z</time>
      </trkpt>
      <trkpt lat="42.34444" lon="-0.72053">
        <ele>707.667725</ele>
        <time>2013-06-02T11:26:41Z</time>
      </trkpt>
      <trkpt lat="42.34441" lon="-0.72058">
        <ele>706.225586</ele>
        <time>2013-06-02T11:27:00Z</time>
      </trkpt>
      <trkpt lat="42.34441" lon="-0.7207">
        <ele>704.783691</ele>
        <time>2013-06-02T11:27:12Z</time>
      </trkpt>
      <trkpt lat="42.34447" lon="-0.72095">
        <ele>702.380371</ele>
        <time>2013-06-02T11:27:34Z</time>
      </trkpt>
      <trkpt lat="42.34447" lon="-0.72103">
        <ele>700.458008</ele>
        <time>2013-06-02T11:27:58Z</time>
      </trkpt>
      <trkpt lat="42.34446" lon="-0.72105">
        <ele>700.938477</ele>
        <time>2013-06-02T11:28:00Z</time>
      </trkpt>
      <trkpt lat="42.34445" lon="-0.72115">
        <ele>699.977051</ele>
        <time>2013-06-02T11:28:07Z</time>
      </trkpt>
      <trkpt lat="42.34446" lon="-0.72147">
        <ele>698.054443</ele>
        <time>2013-06-02T11:28:27Z</time>
      </trkpt>
      <trkpt lat="42.34464" lon="-0.7216">
        <ele>697.57373</ele>
        <time>2013-06-02T11:28:46Z</time>
      </trkpt>
      <trkpt lat="42.34489" lon="-0.72162">
        <ele>695.651123</ele>
        <time>2013-06-02T11:29:07Z</time>
      </trkpt>
      <trkpt lat="42.34513" lon="-0.72172">
        <ele>696.131836</ele>
        <time>2013-06-02T11:29:27Z</time>
      </trkpt>
      <trkpt lat="42.34535" lon="-0.72192">
        <ele>694.689697</ele>
        <time>2013-06-02T11:29:48Z</time>
      </trkpt>
      <trkpt lat="42.34543" lon="-0.72202">
        <ele>695.17041</ele>
        <time>2013-06-02T11:29:57Z</time>
      </trkpt>
      <trkpt lat="42.34563" lon="-0.72228">
        <ele>693.728516</ele>
        <time>2013-06-02T11:30:19Z</time>
      </trkpt>
      <trkpt lat="42.3458" lon="-0.72258">
        <ele>692.767334</ele>
        <time>2013-06-02T11:30:42Z</time>
      </trkpt>
      <trkpt lat="42.34594" lon="-0.72278">
        <ele>690.844482</ele>
        <time>2013-06-02T11:31:02Z</time>
      </trkpt>
      <trkpt lat="42.34598" lon="-0.72285">
        <ele>690.364014</ele>
        <time>2013-06-02T11:31:16Z</time>
      </trkpt>
      <trkpt lat="42.3462" lon="-0.72315">
        <ele>687.47998</ele>
        <time>2013-06-02T11:31:38Z</time>
      </trkpt>
      <trkpt lat="42.34624" lon="-0.72321">
        <ele>686.518799</ele>
        <time>2013-06-02T11:31:44Z</time>
      </trkpt>
      <trkpt lat="42.34627" lon="-0.72327">
        <ele>686.038086</ele>
        <time>2013-06-02T11:31:49Z</time>
      </trkpt>
      <trkpt lat="42.3464" lon="-0.72353">
        <ele>684.115479</ele>
        <time>2013-06-02T11:32:09Z</time>
      </trkpt>
      <trkpt lat="42.34654" lon="-0.72378">
        <ele>684.115479</ele>
        <time>2013-06-02T11:32:27Z</time>
      </trkpt>
      <trkpt lat="42.34651" lon="-0.7242">
        <ele>683.153809</ele>
        <time>2013-06-02T11:32:50Z</time>
      </trkpt>
      <trkpt lat="42.34651" lon="-0.72455">
        <ele>683.153809</ele>
        <time>2013-06-02T11:33:11Z</time>
      </trkpt>
      <trkpt lat="42.34662" lon="-0.72479">
        <ele>681.711914</ele>
        <time>2013-06-02T11:33:30Z</time>
      </trkpt>
      <trkpt lat="42.34669" lon="-0.72491">
        <ele>679.308594</ele>
        <time>2013-06-02T11:33:48Z</time>
      </trkpt>
      <trkpt lat="42.3468" lon="-0.72507">
        <ele>679.308594</ele>
        <time>2013-06-02T11:34:06Z</time>
      </trkpt>
      <trkpt lat="42.34696" lon="-0.72525">
        <ele>678.828125</ele>
        <time>2013-06-02T11:34:25Z</time>
      </trkpt>
      <trkpt lat="42.34711" lon="-0.7254">
        <ele>677.38623</ele>
        <time>2013-06-02T11:34:42Z</time>
      </trkpt>
      <trkpt lat="42.34727" lon="-0.72551">
        <ele>676.424805</ele>
        <time>2013-06-02T11:34:59Z</time>
      </trkpt>
      <trkpt lat="42.34736" lon="-0.72559">
        <ele>676.424805</ele>
        <time>2013-06-02T11:35:18Z</time>
      </trkpt>
      <trkpt lat="42.34738" lon="-0.72559">
        <ele>676.424805</ele>
        <time>2013-06-02T11:35:36Z</time>
      </trkpt>
      <trkpt lat="42.34751" lon="-0.72566">
        <ele>674.502197</ele>
        <time>2013-06-02T11:35:56Z</time>
      </trkpt>
      <trkpt lat="42.34758" lon="-0.72574">
        <ele>673.060303</ele>
        <time>2013-06-02T11:36:11Z</time>
      </trkpt>
      <trkpt lat="42.34769" lon="-0.72579">
        <ele>672.57959</ele>
        <time>2013-06-02T11:36:26Z</time>
      </trkpt>
      <trkpt lat="42.34777" lon="-0.7259">
        <ele>670.656982</ele>
        <time>2013-06-02T11:36:45Z</time>
      </trkpt>
      <trkpt lat="42.34781" lon="-0.72596">
        <ele>670.17627</ele>
        <time>2013-06-02T11:37:05Z</time>
      </trkpt>
      <trkpt lat="42.34789" lon="-0.72607">
        <ele>666.811523</ele>
        <time>2013-06-02T11:37:22Z</time>
      </trkpt>
      <trkpt lat="42.34789" lon="-0.72607">
        <ele>666.811523</ele>
        <time>2013-06-02T11:37:23Z</time>
      </trkpt>
      <trkpt lat="42.34794" lon="-0.72608">
        <ele>666.330811</ele>
        <time>2013-06-02T11:37:28Z</time>
      </trkpt>
      <trkpt lat="42.34798" lon="-0.72607">
        <ele>665.850342</ele>
        <time>2013-06-02T11:37:32Z</time>
      </trkpt>
      <trkpt lat="42.34812" lon="-0.72598">
        <ele>665.850342</ele>
        <time>2013-06-02T11:37:47Z</time>
      </trkpt>
      <trkpt lat="42.34827" lon="-0.72606">
        <ele>663.92749</ele>
        <time>2013-06-02T11:38:02Z</time>
      </trkpt>
      <trkpt lat="42.34835" lon="-0.72622">
        <ele>662.966309</ele>
        <time>2013-06-02T11:38:19Z</time>
      </trkpt>
      <trkpt lat="42.34831" lon="-0.72631">
        <ele>661.043701</ele>
        <time>2013-06-02T11:38:36Z</time>
      </trkpt>
      <trkpt lat="42.34826" lon="-0.72641">
        <ele>658.640381</ele>
        <time>2013-06-02T11:38:54Z</time>
      </trkpt>
      <trkpt lat="42.34819" lon="-0.72648">
        <ele>657.679199</ele>
        <time>2013-06-02T11:39:11Z</time>
      </trkpt>
      <trkpt lat="42.34817" lon="-0.72659">
        <ele>654.314697</ele>
        <time>2013-06-02T11:39:25Z</time>
      </trkpt>
      <trkpt lat="42.34817" lon="-0.72663">
        <ele>653.353271</ele>
        <time>2013-06-02T11:39:29Z</time>
      </trkpt>
      <trkpt lat="42.34815" lon="-0.72679">
        <ele>651.43042</ele>
        <time>2013-06-02T11:39:44Z</time>
      </trkpt>
      <trkpt lat="42.34813" lon="-0.72701">
        <ele>648.065918</ele>
        <time>2013-06-02T11:40:02Z</time>
      </trkpt>
      <trkpt lat="42.34817" lon="-0.72726">
        <ele>646.624023</ele>
        <time>2013-06-02T11:40:23Z</time>
      </trkpt>
      <trkpt lat="42.34819" lon="-0.72725">
        <ele>646.624023</ele>
        <time>2013-06-02T11:40:36Z</time>
      </trkpt>
      <trkpt lat="42.3482" lon="-0.72731">
        <ele>646.143311</ele>
        <time>2013-06-02T11:40:52Z</time>
      </trkpt>
      <trkpt lat="42.3483" lon="-0.72738">
        <ele>644.701172</ele>
        <time>2013-06-02T11:41:14Z</time>
      </trkpt>
      <trkpt lat="42.34837" lon="-0.72741">
        <ele>645.662598</ele>
        <time>2013-06-02T11:41:32Z</time>
      </trkpt>
      <trkpt lat="42.34835" lon="-0.72741">
        <ele>645.181885</ele>
        <time>2013-06-02T11:41:42Z</time>
      </trkpt>
      <trkpt lat="42.34848" lon="-0.7276">
        <ele>644.220703</ele>
        <time>2013-06-02T11:42:02Z</time>
      </trkpt>
      <trkpt lat="42.34844" lon="-0.72765">
        <ele>643.259277</ele>
        <time>2013-06-02T11:42:06Z</time>
      </trkpt>
      <trkpt lat="42.3484" lon="-0.72793">
        <ele>640.855957</ele>
        <time>2013-06-02T11:42:26Z</time>
      </trkpt>
      <trkpt lat="42.34834" lon="-0.72816">
        <ele>637.972168</ele>
        <time>2013-06-02T11:42:46Z</time>
      </trkpt>
      <trkpt lat="42.34824" lon="-0.72817">
        <ele>637.010742</ele>
        <time>2013-06-02T11:42:59Z</time>
      </trkpt>
      <trkpt lat="42.34821" lon="-0.72818">
        <ele>636.049561</ele>
        <time>2013-06-02T11:43:01Z</time>
      </trkpt>
      <trkpt lat="42.34818" lon="-0.72818">
        <ele>636.049561</ele>
        <time>2013-06-02T11:43:03Z</time>
      </trkpt>
      <trkpt lat="42.3481" lon="-0.72832">
        <ele>632.684814</ele>
        <time>2013-06-02T11:43:15Z</time>
      </trkpt>
      <trkpt lat="42.3481" lon="-0.72835">
        <ele>632.204102</ele>
        <time>2013-06-02T11:43:17Z</time>
      </trkpt>
      <trkpt lat="42.34809" lon="-0.72859">
        <ele>629.320068</ele>
        <time>2013-06-02T11:43:34Z</time>
      </trkpt>
      <trkpt lat="42.34819" lon="-0.72875">
        <ele>626.916992</ele>
        <time>2013-06-02T11:43:51Z</time>
      </trkpt>
      <trkpt lat="42.34818" lon="-0.72887">
        <ele>625.955566</ele>
        <time>2013-06-02T11:44:01Z</time>
      </trkpt>
      <trkpt lat="42.34819" lon="-0.7291">
        <ele>622.110352</ele>
        <time>2013-06-02T11:44:21Z</time>
      </trkpt>
      <trkpt lat="42.34817" lon="-0.72915">
        <ele>622.110352</ele>
        <time>2013-06-02T11:44:26Z</time>
      </trkpt>
      <trkpt lat="42.34809" lon="-0.72936">
        <ele>617.78418</ele>
        <time>2013-06-02T11:44:44Z</time>
      </trkpt>
      <trkpt lat="42.34809" lon="-0.72937">
        <ele>617.78418</ele>
        <time>2013-06-02T11:44:45Z</time>
      </trkpt>
      <trkpt lat="42.34801" lon="-0.7296">
        <ele>614.900391</ele>
        <time>2013-06-02T11:45:04Z</time>
      </trkpt>
      <trkpt lat="42.34792" lon="-0.72984">
        <ele>612.49707</ele>
        <time>2013-06-02T11:45:25Z</time>
      </trkpt>
      <trkpt lat="42.34788" lon="-0.72996">
        <ele>609.132568</ele>
        <time>2013-06-02T11:45:35Z</time>
      </trkpt>
      <trkpt lat="42.34784" lon="-0.73023">
        <ele>605.768066</ele>
        <time>2013-06-02T11:45:56Z</time>
      </trkpt>
      <trkpt lat="42.34781" lon="-0.73045">
        <ele>603.845215</ele>
        <time>2013-06-02T11:46:13Z</time>
      </trkpt>
      <trkpt lat="42.34778" lon="-0.73048">
        <ele>602.883789</ele>
        <time>2013-06-02T11:46:17Z</time>
      </trkpt>
      <trkpt lat="42.34754" lon="-0.73056">
        <ele>600.961182</ele>
        <time>2013-06-02T11:46:40Z</time>
      </trkpt>
      <trkpt lat="42.34734" lon="-0.73065">
        <ele>598.557861</ele>
        <time>2013-06-02T11:47:00Z</time>
      </trkpt>
      <trkpt lat="42.34718" lon="-0.73076">
        <ele>595.674072</ele>
        <time>2013-06-02T11:47:17Z</time>
      </trkpt>
      <trkpt lat="42.34693" lon="-0.73088">
        <ele>592.790283</ele>
        <time>2013-06-02T11:47:41Z</time>
      </trkpt>
      <trkpt lat="42.34672" lon="-0.731">
        <ele>589.425537</ele>
        <time>2013-06-02T11:48:01Z</time>
      </trkpt>
      <trkpt lat="42.34645" lon="-0.73117">
        <ele>587.502686</ele>
        <time>2013-06-02T11:48:26Z</time>
      </trkpt>
      <trkpt lat="42.34618" lon="-0.73116">
        <ele>586.541504</ele>
        <time>2013-06-02T11:48:48Z</time>
      </trkpt>
      <trkpt lat="42.34596" lon="-0.73106">
        <ele>584.138184</ele>
        <time>2013-06-02T11:49:08Z</time>
      </trkpt>
      <trkpt lat="42.3458" lon="-0.73081">
        <ele>581.734863</ele>
        <time>2013-06-02T11:49:28Z</time>
      </trkpt>
      <trkpt lat="42.34559" lon="-0.73064">
        <ele>579.812256</ele>
        <time>2013-06-02T11:49:49Z</time>
      </trkpt>
      <trkpt lat="42.34552" lon="-0.73033">
        <ele>578.370361</ele>
        <time>2013-06-02T11:50:09Z</time>
      </trkpt>
      <trkpt lat="42.3454" lon="-0.7302">
        <ele>577.40918</ele>
        <time>2013-06-02T11:50:22Z</time>
      </trkpt>
      <trkpt lat="42.34533" lon="-0.73035">
        <ele>576.928467</ele>
        <time>2013-06-02T11:50:33Z</time>
      </trkpt>
      <trkpt lat="42.34522" lon="-0.73066">
        <ele>575.486328</ele>
        <time>2013-06-02T11:50:54Z</time>
      </trkpt>
      <trkpt lat="42.34504" lon="-0.7309">
        <ele>576.928467</ele>
        <time>2013-06-02T11:51:14Z</time>
      </trkpt>
      <trkpt lat="42.34491" lon="-0.73118">
        <ele>576.447754</ele>
        <time>2013-06-02T11:51:34Z</time>
      </trkpt>
      <trkpt lat="42.34476" lon="-0.73145">
        <ele>576.928467</ele>
        <time>2013-06-02T11:51:55Z</time>
      </trkpt>
      <trkpt lat="42.34471" lon="-0.73153">
        <ele>576.928467</ele>
        <time>2013-06-02T11:52:03Z</time>
      </trkpt>
      <trkpt lat="42.34454" lon="-0.73165">
        <ele>576.928467</ele>
        <time>2013-06-02T11:52:21Z</time>
      </trkpt>
      <trkpt lat="42.34429" lon="-0.73166">
        <ele>575.967041</ele>
        <time>2013-06-02T11:52:41Z</time>
      </trkpt>
      <trkpt lat="42.34421" lon="-0.73164">
        <ele>577.889648</ele>
        <time>2013-06-02T11:52:49Z</time>
      </trkpt>
      <trkpt lat="42.34417" lon="-0.73163">
        <ele>575.967041</ele>
        <time>2013-06-02T11:52:52Z</time>
      </trkpt>
      <trkpt lat="42.34392" lon="-0.73166">
        <ele>574.044434</ele>
        <time>2013-06-02T11:53:14Z</time>
      </trkpt>
      <trkpt lat="42.3437" lon="-0.7318">
        <ele>571.640869</ele>
        <time>2013-06-02T11:53:36Z</time>
      </trkpt>
      <trkpt lat="42.34354" lon="-0.73187">
        <ele>568.276367</ele>
        <time>2013-06-02T11:53:53Z</time>
      </trkpt>
      <trkpt lat="42.34346" lon="-0.73201">
        <ele>565.392578</ele>
        <time>2013-06-02T11:54:05Z</time>
      </trkpt>
      <trkpt lat="42.3434" lon="-0.73229">
        <ele>562.508545</ele>
        <time>2013-06-02T11:54:27Z</time>
      </trkpt>
      <trkpt lat="42.34325" lon="-0.73256">
        <ele>558.66333</ele>
        <time>2013-06-02T11:54:49Z</time>
      </trkpt>
      <trkpt lat="42.34311" lon="-0.73272">
        <ele>556.26001</ele>
        <time>2013-06-02T11:55:05Z</time>
      </trkpt>
      <trkpt lat="42.34293" lon="-0.73293">
        <ele>554.337402</ele>
        <time>2013-06-02T11:55:27Z</time>
      </trkpt>
      <trkpt lat="42.34282" lon="-0.73319">
        <ele>550.972656</ele>
        <time>2013-06-02T11:55:49Z</time>
      </trkpt>
      <trkpt lat="42.34269" lon="-0.73341">
        <ele>548.569336</ele>
        <time>2013-06-02T11:56:09Z</time>
      </trkpt>
      <trkpt lat="42.34267" lon="-0.73344">
        <ele>547.127441</ele>
        <time>2013-06-02T11:56:12Z</time>
      </trkpt>
      <trkpt lat="42.34249" lon="-0.7336">
        <ele>544.243652</ele>
        <time>2013-06-02T11:56:32Z</time>
      </trkpt>
      <trkpt lat="42.3423" lon="-0.73371">
        <ele>541.359497</ele>
        <time>2013-06-02T11:56:52Z</time>
      </trkpt>
      <trkpt lat="42.34214" lon="-0.73375">
        <ele>537.994995</ele>
        <time>2013-06-02T11:57:08Z</time>
      </trkpt>
      <trkpt lat="42.34205" lon="-0.73384">
        <ele>537.033691</ele>
        <time>2013-06-02T11:57:28Z</time>
      </trkpt>
      <trkpt lat="42.34197" lon="-0.73389">
        <ele>535.591553</ele>
        <time>2013-06-02T11:57:42Z</time>
      </trkpt>
      <trkpt lat="42.34194" lon="-0.73392">
        <ele>535.110962</ele>
        <time>2013-06-02T11:57:46Z</time>
      </trkpt>
      <trkpt lat="42.34172" lon="-0.73403">
        <ele>534.630371</ele>
        <time>2013-06-02T11:58:05Z</time>
      </trkpt>
      <trkpt lat="42.34149" lon="-0.73403">
        <ele>533.188354</ele>
        <time>2013-06-02T11:58:25Z</time>
      </trkpt>
      <trkpt lat="42.34133" lon="-0.73405">
        <ele>530.785156</ele>
        <time>2013-06-02T11:58:44Z</time>
      </trkpt>
      <trkpt lat="42.34131" lon="-0.73408">
        <ele>529.82373</ele>
        <time>2013-06-02T11:58:47Z</time>
      </trkpt>
      <trkpt lat="42.34125" lon="-0.73414">
        <ele>530.785156</ele>
        <time>2013-06-02T11:58:58Z</time>
      </trkpt>
      <trkpt lat="42.34116" lon="-0.73441">
        <ele>533.188354</ele>
        <time>2013-06-02T11:59:21Z</time>
      </trkpt>
      <trkpt lat="42.34106" lon="-0.73463">
        <ele>536.553101</ele>
        <time>2013-06-02T11:59:39Z</time>
      </trkpt>
      <trkpt lat="42.34102" lon="-0.7348">
        <ele>539.43689</ele>
        <time>2013-06-02T11:59:53Z</time>
      </trkpt>
      <trkpt lat="42.34098" lon="-0.73508">
        <ele>539.43689</ele>
        <time>2013-06-02T12:00:15Z</time>
      </trkpt>
      <trkpt lat="42.34102" lon="-0.73534">
        <ele>538.475708</ele>
        <time>2013-06-02T12:00:40Z</time>
      </trkpt>
      <trkpt lat="42.34107" lon="-0.73554">
        <ele>535.110962</ele>
        <time>2013-06-02T12:01:00Z</time>
      </trkpt>
      <trkpt lat="42.34109" lon="-0.73562">
        <ele>534.630371</ele>
        <time>2013-06-02T12:01:07Z</time>
      </trkpt>
      <trkpt lat="42.3412" lon="-0.73596">
        <ele>533.668945</ele>
        <time>2013-06-02T12:01:34Z</time>
      </trkpt>
      <trkpt lat="42.3412" lon="-0.73602">
        <ele>533.188354</ele>
        <time>2013-06-02T12:01:39Z</time>
      </trkpt>
      <trkpt lat="42.34114" lon="-0.73634">
        <ele>534.149658</ele>
        <time>2013-06-02T12:02:03Z</time>
      </trkpt>
      <trkpt lat="42.34098" lon="-0.73653">
        <ele>532.707764</ele>
        <time>2013-06-02T12:02:27Z</time>
      </trkpt>
      <trkpt lat="42.34094" lon="-0.73655">
        <ele>531.746338</ele>
        <time>2013-06-02T12:02:32Z</time>
      </trkpt>
      <trkpt lat="42.34071" lon="-0.73669">
        <ele>530.304443</ele>
        <time>2013-06-02T12:02:57Z</time>
      </trkpt>
      <trkpt lat="42.34052" lon="-0.73686">
        <ele>528.862549</ele>
        <time>2013-06-02T12:03:18Z</time>
      </trkpt>
      <trkpt lat="42.34028" lon="-0.73705">
        <ele>526.939819</ele>
        <time>2013-06-02T12:03:43Z</time>
      </trkpt>
      <trkpt lat="42.34009" lon="-0.73727">
        <ele>523.575195</ele>
        <time>2013-06-02T12:04:06Z</time>
      </trkpt>
      <trkpt lat="42.33993" lon="-0.73748">
        <ele>520.691284</ele>
        <time>2013-06-02T12:04:27Z</time>
      </trkpt>
      <trkpt lat="42.33987" lon="-0.73761">
        <ele>518.287842</ele>
        <time>2013-06-02T12:04:39Z</time>
      </trkpt>
      <trkpt lat="42.33979" lon="-0.73771">
        <ele>516.365234</ele>
        <time>2013-06-02T12:04:51Z</time>
      </trkpt>
      <trkpt lat="42.33974" lon="-0.73769">
        <ele>515.884644</ele>
        <time>2013-06-02T12:04:57Z</time>
      </trkpt>
      <trkpt lat="42.33956" lon="-0.73746">
        <ele>513.962036</ele>
        <time>2013-06-02T12:05:22Z</time>
      </trkpt>
      <trkpt lat="42.33938" lon="-0.7373">
        <ele>511.078003</ele>
        <time>2013-06-02T12:05:41Z</time>
      </trkpt>
      <trkpt lat="42.33917" lon="-0.73718">
        <ele>508.194092</ele>
        <time>2013-06-02T12:06:00Z</time>
      </trkpt>
      <trkpt lat="42.33911" lon="-0.73703">
        <ele>505.310181</ele>
        <time>2013-06-02T12:06:12Z</time>
      </trkpt>
      <trkpt lat="42.33903" lon="-0.73683">
        <ele>503.868164</ele>
        <time>2013-06-02T12:06:34Z</time>
      </trkpt>
      <trkpt lat="42.33903" lon="-0.73683">
        <ele>504.829468</ele>
        <time>2013-06-02T12:06:35Z</time>
      </trkpt>
      <trkpt lat="42.339" lon="-0.73686">
        <ele>504.348877</ele>
        <time>2013-06-02T12:06:39Z</time>
      </trkpt>
      <trkpt lat="42.33898" lon="-0.73701">
        <ele>504.348877</ele>
        <time>2013-06-02T12:06:50Z</time>
      </trkpt>
      <trkpt lat="42.33894" lon="-0.73722">
        <ele>507.232788</ele>
        <time>2013-06-02T12:07:08Z</time>
      </trkpt>
      <trkpt lat="42.33893" lon="-0.73729">
        <ele>506.752075</ele>
        <time>2013-06-02T12:07:13Z</time>
      </trkpt>
      <trkpt lat="42.33898" lon="-0.7376">
        <ele>510.116699</ele>
        <time>2013-06-02T12:07:34Z</time>
      </trkpt>
      <trkpt lat="42.33898" lon="-0.73762">
        <ele>509.636108</ele>
        <time>2013-06-02T12:07:35Z</time>
      </trkpt>
      <trkpt lat="42.33897" lon="-0.73799">
        <ele>512.52002</ele>
        <time>2013-06-02T12:07:59Z</time>
      </trkpt>
      <trkpt lat="42.33885" lon="-0.73829">
        <ele>513.962036</ele>
        <time>2013-06-02T12:08:20Z</time>
      </trkpt>
      <trkpt lat="42.33874" lon="-0.73867">
        <ele>514.442627</ele>
        <time>2013-06-02T12:08:45Z</time>
      </trkpt>
      <trkpt lat="42.33871" lon="-0.73909">
        <ele>514.442627</ele>
        <time>2013-06-02T12:09:11Z</time>
      </trkpt>
      <trkpt lat="42.33872" lon="-0.73949">
        <ele>513.000732</ele>
        <time>2013-06-02T12:09:36Z</time>
      </trkpt>
      <trkpt lat="42.33855" lon="-0.73972">
        <ele>511.078003</ele>
        <time>2013-06-02T12:09:57Z</time>
      </trkpt>
      <trkpt lat="42.3383" lon="-0.73993">
        <ele>510.59729</ele>
        <time>2013-06-02T12:10:21Z</time>
      </trkpt>
      <trkpt lat="42.33795" lon="-0.73999">
        <ele>511.558716</ele>
        <time>2013-06-02T12:10:49Z</time>
      </trkpt>
      <trkpt lat="42.3377" lon="-0.73986">
        <ele>510.59729</ele>
        <time>2013-06-02T12:11:12Z</time>
      </trkpt>
      <trkpt lat="42.33755" lon="-0.73964">
        <ele>509.636108</ele>
        <time>2013-06-02T12:11:34Z</time>
      </trkpt>
      <trkpt lat="42.33741" lon="-0.73965">
        <ele>506.271484</ele>
        <time>2013-06-02T12:11:53Z</time>
      </trkpt>
      <trkpt lat="42.33735" lon="-0.73966">
        <ele>504.829468</ele>
        <time>2013-06-02T12:12:00Z</time>
      </trkpt>
      <trkpt lat="42.33717" lon="-0.73969">
        <ele>501.945557</ele>
        <time>2013-06-02T12:12:19Z</time>
      </trkpt>
      <trkpt lat="42.33715" lon="-0.73968">
        <ele>501.945557</ele>
        <time>2013-06-02T12:12:22Z</time>
      </trkpt>
      <trkpt lat="42.33697" lon="-0.73957">
        <ele>498.580933</ele>
        <time>2013-06-02T12:12:42Z</time>
      </trkpt>
      <trkpt lat="42.33687" lon="-0.73968">
        <ele>500.984131</ele>
        <time>2013-06-02T12:12:58Z</time>
      </trkpt>
      <trkpt lat="42.33673" lon="-0.73968">
        <ele>503.868164</ele>
        <time>2013-06-02T12:13:14Z</time>
      </trkpt>
      <trkpt lat="42.33668" lon="-0.73964">
        <ele>505.310181</ele>
        <time>2013-06-02T12:13:24Z</time>
      </trkpt>
      <trkpt lat="42.33648" lon="-0.73955">
        <ele>507.713501</ele>
        <time>2013-06-02T12:13:45Z</time>
      </trkpt>
      <trkpt lat="42.33624" lon="-0.73952">
        <ele>508.194092</ele>
        <time>2013-06-02T12:14:07Z</time>
      </trkpt>
      <trkpt lat="42.33596" lon="-0.73954">
        <ele>508.674683</ele>
        <time>2013-06-02T12:14:30Z</time>
      </trkpt>
      <trkpt lat="42.33573" lon="-0.73953">
        <ele>508.674683</ele>
        <time>2013-06-02T12:14:53Z</time>
      </trkpt>
      <trkpt lat="42.33558" lon="-0.73945">
        <ele>509.155396</ele>
        <time>2013-06-02T12:15:10Z</time>
      </trkpt>
      <trkpt lat="42.33535" lon="-0.73943">
        <ele>509.155396</ele>
        <time>2013-06-02T12:15:30Z</time>
      </trkpt>
      <trkpt lat="42.33524" lon="-0.73942">
        <ele>507.232788</ele>
        <time>2013-06-02T12:15:44Z</time>
      </trkpt>
      <trkpt lat="42.33511" lon="-0.73936">
        <ele>504.348877</ele>
        <time>2013-06-02T12:15:59Z</time>
      </trkpt>
      <trkpt lat="42.335" lon="-0.73935">
        <ele>501.464844</ele>
        <time>2013-06-02T12:16:19Z</time>
      </trkpt>
      <trkpt lat="42.33501" lon="-0.73936">
        <ele>500.50354</ele>
        <time>2013-06-02T12:16:21Z</time>
      </trkpt>
      <trkpt lat="42.33504" lon="-0.73947">
        <ele>497.619629</ele>
        <time>2013-06-02T12:16:38Z</time>
      </trkpt>
      <trkpt lat="42.33493" lon="-0.73942">
        <ele>494.255005</ele>
        <time>2013-06-02T12:16:54Z</time>
      </trkpt>
      <trkpt lat="42.33495" lon="-0.73952">
        <ele>491.851685</ele>
        <time>2013-06-02T12:17:09Z</time>
      </trkpt>
      <trkpt lat="42.33496" lon="-0.73953">
        <ele>490.890381</ele>
        <time>2013-06-02T12:17:11Z</time>
      </trkpt>
      <trkpt lat="42.33497" lon="-0.73959">
        <ele>489.448364</ele>
        <time>2013-06-02T12:17:27Z</time>
      </trkpt>
      <trkpt lat="42.33487" lon="-0.73956">
        <ele>486.08374</ele>
        <time>2013-06-02T12:17:40Z</time>
      </trkpt>
      <trkpt lat="42.33494" lon="-0.73969">
        <ele>483.199829</ele>
        <time>2013-06-02T12:17:56Z</time>
      </trkpt>
      <trkpt lat="42.33492" lon="-0.7398">
        <ele>479.835083</ele>
        <time>2013-06-02T12:18:13Z</time>
      </trkpt>
      <trkpt lat="42.33479" lon="-0.73973">
        <ele>477.912476</ele>
        <time>2013-06-02T12:18:32Z</time>
      </trkpt>
      <trkpt lat="42.33472" lon="-0.73957">
        <ele>475.028687</ele>
        <time>2013-06-02T12:18:50Z</time>
      </trkpt>
      <trkpt lat="42.33467" lon="-0.73966">
        <ele>472.625366</ele>
        <time>2013-06-02T12:19:07Z</time>
      </trkpt>
      <trkpt lat="42.33468" lon="-0.73968">
        <ele>472.144653</ele>
        <time>2013-06-02T12:19:11Z</time>
      </trkpt>
      <trkpt lat="42.33468" lon="-0.74005">
        <ele>471.66394</ele>
        <time>2013-06-02T12:19:33Z</time>
      </trkpt>
      <trkpt lat="42.33468" lon="-0.74009">
        <ele>473.106079</ele>
        <time>2013-06-02T12:19:35Z</time>
      </trkpt>
      <trkpt lat="42.33468" lon="-0.74049">
        <ele>471.66394</ele>
        <time>2013-06-02T12:19:59Z</time>
      </trkpt>
      <trkpt lat="42.33467" lon="-0.74092">
        <ele>471.66394</ele>
        <time>2013-06-02T12:20:23Z</time>
      </trkpt>
      <trkpt lat="42.33461" lon="-0.74098">
        <ele>470.702637</ele>
        <time>2013-06-02T12:20:38Z</time>
      </trkpt>
      <trkpt lat="42.33453" lon="-0.74094">
        <ele>469.741333</ele>
        <time>2013-06-02T12:20:49Z</time>
      </trkpt>
      <trkpt lat="42.33428" lon="-0.74096">
        <ele>470.221924</ele>
        <time>2013-06-02T12:21:11Z</time>
      </trkpt>
      <trkpt lat="42.33404" lon="-0.74102">
        <ele>470.702637</ele>
        <time>2013-06-02T12:21:30Z</time>
      </trkpt>
      <trkpt lat="42.33372" lon="-0.74114">
        <ele>471.66394</ele>
        <time>2013-06-02T12:21:56Z</time>
      </trkpt>
      <trkpt lat="42.33347" lon="-0.74127">
        <ele>472.144653</ele>
        <time>2013-06-02T12:22:16Z</time>
      </trkpt>
      <trkpt lat="42.33328" lon="-0.74143">
        <ele>473.58667</ele>
        <time>2013-06-02T12:22:34Z</time>
      </trkpt>
      <trkpt lat="42.33308" lon="-0.74161">
        <ele>473.58667</ele>
        <time>2013-06-02T12:22:53Z</time>
      </trkpt>
      <trkpt lat="42.33285" lon="-0.74193">
        <ele>475.989868</ele>
        <time>2013-06-02T12:23:19Z</time>
      </trkpt>
      <trkpt lat="42.33279" lon="-0.74216">
        <ele>479.354492</ele>
        <time>2013-06-02T12:23:35Z</time>
      </trkpt>
      <trkpt lat="42.33277" lon="-0.74217">
        <ele>480.315918</ele>
        <time>2013-06-02T12:23:37Z</time>
      </trkpt>
      <trkpt lat="42.33275" lon="-0.74218">
        <ele>480.315918</ele>
        <time>2013-06-02T12:23:39Z</time>
      </trkpt>
      <trkpt lat="42.33267" lon="-0.74237">
        <ele>483.68042</ele>
        <time>2013-06-02T12:23:53Z</time>
      </trkpt>
      <trkpt lat="42.33258" lon="-0.74269">
        <ele>487.525635</ele>
        <time>2013-06-02T12:24:15Z</time>
      </trkpt>
      <trkpt lat="42.33263" lon="-0.74299">
        <ele>489.929077</ele>
        <time>2013-06-02T12:24:35Z</time>
      </trkpt>
      <trkpt lat="42.33281" lon="-0.74295">
        <ele>491.851685</ele>
        <time>2013-06-02T12:24:51Z</time>
      </trkpt>
      <trkpt lat="42.33285" lon="-0.74294">
        <ele>493.293579</ele>
        <time>2013-06-02T12:24:54Z</time>
      </trkpt>
      <trkpt lat="42.3331" lon="-0.74303">
        <ele>495.216187</ele>
        <time>2013-06-02T12:25:17Z</time>
      </trkpt>
      <trkpt lat="42.33321" lon="-0.74321">
        <ele>498.580933</ele>
        <time>2013-06-02T12:25:31Z</time>
      </trkpt>
      <trkpt lat="42.33334" lon="-0.74349">
        <ele>500.984131</ele>
        <time>2013-06-02T12:25:51Z</time>
      </trkpt>
      <trkpt lat="42.33351" lon="-0.74373">
        <ele>503.387451</ele>
        <time>2013-06-02T12:26:11Z</time>
      </trkpt>
      <trkpt lat="42.33374" lon="-0.74402">
        <ele>504.348877</ele>
        <time>2013-06-02T12:26:35Z</time>
      </trkpt>
      <trkpt lat="42.33375" lon="-0.74406">
        <ele>503.868164</ele>
        <time>2013-06-02T12:26:49Z</time>
      </trkpt>
      <trkpt lat="42.33375" lon="-0.74405">
        <ele>503.387451</ele>
        <time>2013-06-02T12:27:02Z</time>
      </trkpt>
      <trkpt lat="42.33375" lon="-0.74404">
        <ele>503.868164</ele>
        <time>2013-06-02T12:28:16Z</time>
      </trkpt>
      <trkpt lat="42.33378" lon="-0.74406">
        <ele>504.348877</ele>
        <time>2013-06-02T12:28:41Z</time>
      </trkpt>
      <trkpt lat="42.33389" lon="-0.74433">
        <ele>506.752075</ele>
        <time>2013-06-02T12:29:03Z</time>
      </trkpt>
      <trkpt lat="42.334" lon="-0.7447">
        <ele>505.310181</ele>
        <time>2013-06-02T12:29:26Z</time>
      </trkpt>
      <trkpt lat="42.33413" lon="-0.74493">
        <ele>506.752075</ele>
        <time>2013-06-02T12:29:43Z</time>
      </trkpt>
      <trkpt lat="42.33423" lon="-0.74518">
        <ele>506.271484</ele>
        <time>2013-06-02T12:29:59Z</time>
      </trkpt>
      <trkpt lat="42.3344" lon="-0.74547">
        <ele>506.752075</ele>
        <time>2013-06-02T12:30:20Z</time>
      </trkpt>
      <trkpt lat="42.33454" lon="-0.74581">
        <ele>507.232788</ele>
        <time>2013-06-02T12:30:42Z</time>
      </trkpt>
      <trkpt lat="42.33464" lon="-0.74628">
        <ele>507.713501</ele>
        <time>2013-06-02T12:31:10Z</time>
      </trkpt>
      <trkpt lat="42.3347" lon="-0.74662">
        <ele>507.232788</ele>
        <time>2013-06-02T12:31:31Z</time>
      </trkpt>
      <trkpt lat="42.33476" lon="-0.74709">
        <ele>508.194092</ele>
        <time>2013-06-02T12:31:56Z</time>
      </trkpt>
      <trkpt lat="42.33498" lon="-0.74732">
        <ele>509.155396</ele>
        <time>2013-06-02T12:32:16Z</time>
      </trkpt>
      <trkpt lat="42.33528" lon="-0.7473">
        <ele>509.636108</ele>
        <time>2013-06-02T12:32:39Z</time>
      </trkpt>
      <trkpt lat="42.33533" lon="-0.7473">
        <ele>508.674683</ele>
        <time>2013-06-02T12:32:43Z</time>
      </trkpt>
      <trkpt lat="42.33564" lon="-0.74732">
        <ele>510.59729</ele>
        <time>2013-06-02T12:33:07Z</time>
      </trkpt>
      <trkpt lat="42.33591" lon="-0.74737">
        <ele>512.039429</ele>
        <time>2013-06-02T12:33:30Z</time>
      </trkpt>
      <trkpt lat="42.33594" lon="-0.74771">
        <ele>514.92334</ele>
        <time>2013-06-02T12:33:51Z</time>
      </trkpt>
      <trkpt lat="42.33597" lon="-0.74807">
        <ele>514.92334</ele>
        <time>2013-06-02T12:34:12Z</time>
      </trkpt>
      <trkpt lat="42.33608" lon="-0.7485">
        <ele>515.404053</ele>
        <time>2013-06-02T12:34:37Z</time>
      </trkpt>
      <trkpt lat="42.33609" lon="-0.74853">
        <ele>515.884644</ele>
        <time>2013-06-02T12:34:39Z</time>
      </trkpt>
      <trkpt lat="42.33595" lon="-0.74875">
        <ele>514.442627</ele>
        <time>2013-06-02T12:34:56Z</time>
      </trkpt>
      <trkpt lat="42.33593" lon="-0.74906">
        <ele>514.92334</ele>
        <time>2013-06-02T12:35:14Z</time>
      </trkpt>
      <trkpt lat="42.33607" lon="-0.74928">
        <ele>517.807251</ele>
        <time>2013-06-02T12:35:32Z</time>
      </trkpt>
      <trkpt lat="42.33632" lon="-0.74954">
        <ele>518.287842</ele>
        <time>2013-06-02T12:35:56Z</time>
      </trkpt>
      <trkpt lat="42.33653" lon="-0.74949">
        <ele>518.287842</ele>
        <time>2013-06-02T12:36:15Z</time>
      </trkpt>
      <trkpt lat="42.33672" lon="-0.74935">
        <ele>516.845947</ele>
        <time>2013-06-02T12:36:32Z</time>
      </trkpt>
      <trkpt lat="42.33675" lon="-0.74933">
        <ele>518.287842</ele>
        <time>2013-06-02T12:36:35Z</time>
      </trkpt>
      <trkpt lat="42.33682" lon="-0.74928">
        <ele>517.32666</ele>
        <time>2013-06-02T12:36:53Z</time>
      </trkpt>
      <trkpt lat="42.33682" lon="-0.74928">
        <ele>514.92334</ele>
        <time>2013-06-02T12:36:58Z</time>
      </trkpt>
    </trkseg>
  </trk>
</gpx>